Wetterdaten: Donnerstag, 26.02.2026
Datum Zeit Temp. Aussen Temp. o. S. Temp +5cm Feuchte Auss Luftdruck Regen Sonnenschein Regendauer Solar Windböen Empfang
26.02.2026 00:00 10,3 °C 9,4 °C 5,6 °C 92 % 1020,7 hPa 0,0 l/m² 0 min 0 min 0 W/m² 16,1 km/h (3 Bft) 95,74 %
26.02.2026 00:02 10,3 °C 9,4 °C 5,6 °C 92 % 1020,6 hPa 0,0 l/m² 0 min 0 min 0 W/m² 19,3 km/h (3 Bft) 97,22 %
26.02.2026 00:04 10,3 °C 9,4 °C 5,6 °C 92 % 1020,6 hPa 0,0 l/m² 0 min 0 min 0 W/m² 16,1 km/h (3 Bft) 95,83 %
26.02.2026 00:08 10,3 °C 9,4 °C 5,6 °C 92 % 1020,7 hPa 0,0 l/m² 0 min 0 min 0 W/m² 16,1 km/h (3 Bft) 92,55 %
26.02.2026 00:12 10,2 °C 9,4 °C 5,6 °C 93 % 1020,6 hPa 0,0 l/m² 0 min 0 min 0 W/m² 6,4 km/h (2 Bft) 100,00 %
26.02.2026 00:14 10,2 °C 9,4 °C 5,6 °C 93 % 1020,6 hPa 0,0 l/m² 0 min 0 min 0 W/m² 16,1 km/h (3 Bft) 98,21 %
26.02.2026 00:16 10,2 °C 9,4 °C 5,6 °C 93 % 1020,6 hPa 0,0 l/m² 0 min 0 min 0 W/m² 16,1 km/h (3 Bft) 97,37 %
26.02.2026 00:18 10,2 °C 9,4 °C 5,6 °C 93 % 1020,6 hPa 0,0 l/m² 0 min 0 min 0 W/m² 16,1 km/h (3 Bft) 100,00 %
26.02.2026 00:20 10,2 °C 9,4 °C 5,6 °C 93 % 1020,6 hPa 0,0 l/m² 0 min 0 min 0 W/m² 16,1 km/h (3 Bft) 100,00 %
26.02.2026 00:22 10,1 °C 9,4 °C 5,6 °C 93 % 1020,6 hPa 0,0 l/m² 0 min 0 min 0 W/m² 12,9 km/h (3 Bft) 96,43 %
26.02.2026 00:24 10,1 °C 9,4 °C 5,6 °C 93 % 1020,6 hPa 0,0 l/m² 0 min 0 min 0 W/m² 16,1 km/h (3 Bft) 97,37 %
26.02.2026 00:26 10,1 °C 9,4 °C 5,6 °C 93 % 1020,7 hPa 0,0 l/m² 0 min 0 min 0 W/m² 16,1 km/h (3 Bft) 100,00 %
26.02.2026 00:28 10,1 °C 9,4 °C 5,6 °C 93 % 1020,6 hPa 0,0 l/m² 0 min 0 min 0 W/m² 12,9 km/h (3 Bft) 100,00 %
26.02.2026 00:30 10,1 °C 9,4 °C 5,6 °C 93 % 1020,7 hPa 0,0 l/m² 0 min 0 min 0 W/m² 19,3 km/h (3 Bft) 97,87 %
26.02.2026 00:32 10,1 °C 9,4 °C 5,6 °C 93 % 1020,7 hPa 0,0 l/m² 0 min 0 min 0 W/m² 16,1 km/h (3 Bft) 100,00 %
26.02.2026 00:34 10,1 °C 9,4 °C 5,6 °C 93 % 1020,7 hPa 0,0 l/m² 0 min 0 min 0 W/m² 19,3 km/h (3 Bft) 100,00 %
26.02.2026 00:36 10,1 °C 9,4 °C 5,6 °C 93 % 1020,7 hPa 0,0 l/m² 0 min 0 min 0 W/m² 16,1 km/h (3 Bft) 98,11 %
26.02.2026 00:38 10,0 °C 9,4 °C 5,6 °C 93 % 1020,7 hPa 0,0 l/m² 0 min 0 min 0 W/m² 12,9 km/h (3 Bft) 100,00 %
26.02.2026 00:40 10,0 °C 8,9 °C 5,6 °C 93 % 1020,7 hPa 0,0 l/m² 0 min 0 min 0 W/m² 9,7 km/h (2 Bft) 100,00 %
26.02.2026 00:42 10,0 °C 8,9 °C 5,6 °C 93 % 1020,7 hPa 0,0 l/m² 0 min 0 min 0 W/m² 12,9 km/h (3 Bft) 100,00 %
26.02.2026 00:44 10,0 °C 8,9 °C 5,6 °C 93 % 1020,7 hPa 0,0 l/m² 0 min 0 min 0 W/m² 12,9 km/h (3 Bft) 100,00 %
26.02.2026 00:46 9,9 °C 8,9 °C 5,6 °C 93 % 1020,7 hPa 0,0 l/m² 0 min 0 min 0 W/m² 12,9 km/h (3 Bft) 100,00 %
26.02.2026 00:48 9,9 °C 8,9 °C 5,6 °C 93 % 1020,6 hPa 0,0 l/m² 0 min 0 min 0 W/m² 12,9 km/h (3 Bft) 100,00 %
26.02.2026 00:50 9,9 °C 8,9 °C 5,6 °C 93 % 1020,6 hPa 0,0 l/m² 0 min 0 min 0 W/m² 16,1 km/h (3 Bft) 97,87 %
26.02.2026 00:52 9,9 °C 8,9 °C 5,6 °C 93 % 1020,5 hPa 0,0 l/m² 0 min 0 min 0 W/m² 9,7 km/h (2 Bft) 100,00 %
26.02.2026 00:54 9,9 °C 8,9 °C 5,6 °C 93 % 1020,5 hPa 0,0 l/m² 0 min 0 min 0 W/m² 16,1 km/h (3 Bft) 100,00 %
26.02.2026 00:56 9,9 °C 8,9 °C 5,6 °C 93 % 1020,5 hPa 0,0 l/m² 0 min 0 min 0 W/m² 12,9 km/h (3 Bft) 100,00 %
26.02.2026 00:58 9,9 °C 8,9 °C 5,6 °C 93 % 1020,5 hPa 0,0 l/m² 0 min 0 min 0 W/m² 12,9 km/h (3 Bft) 98,11 %
26.02.2026 01:00 9,8 °C 8,9 °C 5,6 °C 93 % 1020,4 hPa 0,0 l/m² 0 min 0 min 0 W/m² 16,1 km/h (3 Bft) 97,87 %
26.02.2026 01:02 9,8 °C 8,9 °C 5,6 °C 93 % 1020,5 hPa 0,0 l/m² 0 min 0 min 0 W/m² 6,4 km/h (2 Bft) 100,00 %
26.02.2026 01:04 9,8 °C 8,9 °C 5,6 °C 93 % 1020,4 hPa 0,0 l/m² 0 min 0 min 0 W/m² 12,9 km/h (3 Bft) 97,37 %
26.02.2026 01:06 9,8 °C 8,9 °C 5,6 °C 93 % 1020,5 hPa 0,0 l/m² 0 min 0 min 0 W/m² 16,1 km/h (3 Bft) 95,83 %
26.02.2026 01:08 9,8 °C 8,9 °C 5,6 °C 93 % 1020,5 hPa 0,0 l/m² 0 min 0 min 0 W/m² 16,1 km/h (3 Bft) 100,00 %
26.02.2026 01:10 9,8 °C 8,9 °C 5,6 °C 93 % 1020,5 hPa 0,0 l/m² 0 min 0 min 0 W/m² 12,9 km/h (3 Bft) 93,62 %
26.02.2026 01:12 9,7 °C 8,9 °C 5,6 °C 93 % 1020,6 hPa 0,0 l/m² 0 min 0 min 0 W/m² 12,9 km/h (3 Bft) 100,00 %
26.02.2026 01:14 9,7 °C 8,9 °C 5,6 °C 93 % 1020,6 hPa 0,0 l/m² 0 min 0 min 0 W/m² 9,7 km/h (2 Bft) 97,67 %
26.02.2026 01:16 9,7 °C 8,9 °C 5,6 °C 93 % 1020,5 hPa 0,0 l/m² 0 min 0 min 0 W/m² 12,9 km/h (3 Bft) 96,08 %
26.02.2026 01:18 9,7 °C 8,9 °C 5,6 °C 93 % 1020,6 hPa 0,0 l/m² 0 min 0 min 0 W/m² 16,1 km/h (3 Bft) 97,83 %
26.02.2026 01:20 9,7 °C 8,9 °C 5,6 °C 94 % 1020,5 hPa 0,0 l/m² 0 min 0 min 0 W/m² 12,9 km/h (3 Bft) 97,87 %
26.02.2026 01:22 9,7 °C 8,9 °C 5,6 °C 94 % 1020,5 hPa 0,0 l/m² 0 min 0 min 0 W/m² 12,9 km/h (3 Bft) 97,87 %
26.02.2026 01:24 9,7 °C 8,9 °C 5,6 °C 94 % 1020,6 hPa 0,0 l/m² 0 min 0 min 0 W/m² 16,1 km/h (3 Bft) 95,74 %
26.02.2026 01:26 9,7 °C 8,9 °C 5,6 °C 94 % 1020,6 hPa 0,0 l/m² 0 min 0 min 0 W/m² 12,9 km/h (3 Bft) 95,74 %
26.02.2026 01:28 9,7 °C 8,9 °C 5,6 °C 94 % 1020,6 hPa 0,0 l/m² 0 min 0 min 0 W/m² 12,9 km/h (3 Bft) 98,11 %
26.02.2026 01:30 9,7 °C 8,9 °C 5,6 °C 94 % 1020,6 hPa 0,0 l/m² 0 min 0 min 0 W/m² 16,1 km/h (3 Bft) 97,37 %
26.02.2026 01:32 9,7 °C 8,9 °C 5,6 °C 94 % 1020,6 hPa 0,0 l/m² 0 min 0 min 0 W/m² 9,7 km/h (2 Bft) 97,96 %
26.02.2026 01:34 9,7 °C 8,9 °C 5,6 °C 94 % 1020,6 hPa 0,0 l/m² 0 min 0 min 0 W/m² 6,4 km/h (2 Bft) 95,74 %
26.02.2026 01:36 9,7 °C 8,9 °C 5,6 °C 94 % 1020,6 hPa 0,0 l/m² 0 min 0 min 0 W/m² 12,9 km/h (3 Bft) 97,87 %
26.02.2026 01:38 9,7 °C 8,9 °C 5,6 °C 94 % 1020,5 hPa 0,0 l/m² 0 min 0 min 0 W/m² 16,1 km/h (3 Bft) 97,87 %
26.02.2026 01:40 9,7 °C 8,9 °C 5,6 °C 94 % 1020,5 hPa 0,0 l/m² 0 min 0 min 0 W/m² 16,1 km/h (3 Bft) 97,87 %
26.02.2026 01:42 9,7 °C 8,9 °C 5,6 °C 94 % 1020,5 hPa 0,0 l/m² 0 min 0 min 0 W/m² 16,1 km/h (3 Bft) 97,83 %
26.02.2026 01:44 9,7 °C 8,9 °C 5,6 °C 94 % 1020,6 hPa 0,0 l/m² 0 min 0 min 0 W/m² 16,1 km/h (3 Bft) 95,74 %
26.02.2026 01:46 9,6 °C 8,9 °C 5,6 °C 94 % 1020,5 hPa 0,0 l/m² 0 min 0 min 0 W/m² 12,9 km/h (3 Bft) 92,59 %
26.02.2026 01:48 9,6 °C 8,9 °C 5,6 °C 94 % 1020,5 hPa 0,0 l/m² 0 min 0 min 0 W/m² 16,1 km/h (3 Bft) 93,62 %
26.02.2026 01:50 9,6 °C 8,9 °C 5,6 °C 94 % 1020,5 hPa 0,0 l/m² 0 min 0 min 0 W/m² 16,1 km/h (3 Bft) 94,74 %
26.02.2026 01:52 9,6 °C 8,9 °C 5,6 °C 94 % 1020,5 hPa 0,0 l/m² 0 min 0 min 0 W/m² 16,1 km/h (3 Bft) 95,74 %
26.02.2026 01:54 9,6 °C 8,9 °C 5,6 °C 94 % 1020,5 hPa 0,0 l/m² 0 min 0 min 0 W/m² 16,1 km/h (3 Bft) 95,65 %
26.02.2026 01:56 9,6 °C 8,9 °C 5,0 °C 94 % 1020,5 hPa 0,0 l/m² 0 min 0 min 0 W/m² 16,1 km/h (3 Bft) 97,96 %
26.02.2026 01:58 9,6 °C 8,9 °C 5,0 °C 94 % 1020,4 hPa 0,0 l/m² 0 min 0 min 0 W/m² 16,1 km/h (3 Bft) 100,00 %
26.02.2026 02:00 9,6 °C 8,9 °C 5,0 °C 94 % 1020,4 hPa 0,0 l/m² 0 min 0 min 0 W/m² 16,1 km/h (3 Bft) 97,87 %
26.02.2026 02:02 9,6 °C 8,9 °C 5,0 °C 94 % 1020,4 hPa 0,0 l/m² 0 min 0 min 0 W/m² 16,1 km/h (3 Bft) 95,74 %
26.02.2026 02:04 9,6 °C 8,9 °C 5,0 °C 94 % 1020,4 hPa 0,0 l/m² 0 min 0 min 0 W/m² 12,9 km/h (3 Bft) 97,92 %
26.02.2026 02:06 9,6 °C 8,9 °C 5,0 °C 94 % 1020,4 hPa 0,0 l/m² 0 min 0 min 0 W/m² 16,1 km/h (3 Bft) 97,87 %
26.02.2026 02:08 9,6 °C 8,9 °C 5,0 °C 94 % 1020,4 hPa 0,0 l/m² 0 min 0 min 0 W/m² 16,1 km/h (3 Bft) 97,73 %
26.02.2026 02:10 9,6 °C 8,9 °C 5,0 °C 94 % 1020,4 hPa 0,0 l/m² 0 min 0 min 0 W/m² 19,3 km/h (3 Bft) 97,87 %
26.02.2026 02:14 9,5 °C 8,9 °C 5,0 °C 94 % 1020,3 hPa 0,0 l/m² 0 min 0 min 0 W/m² 19,3 km/h (3 Bft) 92,86 %
26.02.2026 02:16 9,5 °C 8,9 °C 5,0 °C 94 % 1020,3 hPa 0,0 l/m² 0 min 0 min 0 W/m² 12,9 km/h (3 Bft) 97,87 %
26.02.2026 02:18 9,5 °C 8,9 °C 5,0 °C 94 % 1020,4 hPa 0,0 l/m² 0 min 0 min 0 W/m² 19,3 km/h (3 Bft) 100,00 %
26.02.2026 02:20 9,5 °C 8,9 °C 5,0 °C 94 % 1020,4 hPa 0,0 l/m² 0 min 0 min 0 W/m² 16,1 km/h (3 Bft) 100,00 %
26.02.2026 02:22 9,5 °C 8,9 °C 5,0 °C 94 % 1020,4 hPa 0,0 l/m² 0 min 0 min 0 W/m² 16,1 km/h (3 Bft) 97,87 %
26.02.2026 02:24 9,5 °C 8,3 °C 5,0 °C 94 % 1020,4 hPa 0,0 l/m² 0 min 0 min 0 W/m² 16,1 km/h (3 Bft) 100,00 %
26.02.2026 02:26 9,4 °C 8,3 °C 5,0 °C 94 % 1020,4 hPa 0,0 l/m² 0 min 0 min 0 W/m² 19,3 km/h (3 Bft) 95,74 %
26.02.2026 02:28 9,4 °C 8,3 °C 5,0 °C 94 % 1020,4 hPa 0,0 l/m² 0 min 0 min 0 W/m² 16,1 km/h (3 Bft) 97,87 %
26.02.2026 02:30 9,4 °C 8,9 °C 5,0 °C 94 % 1020,4 hPa 0,0 l/m² 0 min 0 min 0 W/m² 22,5 km/h (4 Bft) 97,67 %
26.02.2026 02:32 9,4 °C 8,9 °C 5,0 °C 94 % 1020,3 hPa 0,0 l/m² 0 min 0 min 0 W/m² 22,5 km/h (4 Bft) 98,00 %
26.02.2026 02:34 9,4 °C 8,9 °C 5,0 °C 94 % 1020,3 hPa 0,0 l/m² 0 min 0 min 0 W/m² 12,9 km/h (3 Bft) 97,87 %
26.02.2026 02:36 9,4 °C 8,9 °C 5,0 °C 94 % 1020,4 hPa 0,0 l/m² 0 min 0 min 0 W/m² 12,9 km/h (3 Bft) 97,87 %
26.02.2026 02:38 9,4 °C 8,9 °C 5,0 °C 94 % 1020,4 hPa 0,0 l/m² 0 min 0 min 0 W/m² 16,1 km/h (3 Bft) 97,87 %
26.02.2026 02:40 9,4 °C 8,9 °C 5,0 °C 94 % 1020,4 hPa 0,0 l/m² 0 min 0 min 0 W/m² 19,3 km/h (3 Bft) 97,67 %
26.02.2026 02:42 9,4 °C 8,9 °C 5,0 °C 94 % 1020,4 hPa 0,0 l/m² 0 min 0 min 0 W/m² 19,3 km/h (3 Bft) 96,00 %
26.02.2026 02:44 9,4 °C 8,9 °C 5,0 °C 94 % 1020,4 hPa 0,0 l/m² 0 min 0 min 0 W/m² 16,1 km/h (3 Bft) 97,87 %
26.02.2026 02:46 9,5 °C 8,9 °C 5,0 °C 94 % 1020,3 hPa 0,0 l/m² 0 min 0 min 0 W/m² 25,7 km/h (4 Bft) 97,87 %
26.02.2026 02:48 9,5 °C 8,9 °C 5,0 °C 94 % 1020,3 hPa 0,0 l/m² 0 min 0 min 0 W/m² 19,3 km/h (3 Bft) 97,87 %
26.02.2026 02:50 9,5 °C 8,9 °C 5,0 °C 94 % 1020,4 hPa 0,0 l/m² 0 min 0 min 0 W/m² 19,3 km/h (3 Bft) 97,87 %
26.02.2026 02:52 9,4 °C 8,9 °C 5,0 °C 94 % 1020,3 hPa 0,0 l/m² 0 min 0 min 0 W/m² 19,3 km/h (3 Bft) 93,62 %
26.02.2026 02:54 9,4 °C 8,9 °C 5,0 °C 94 % 1020,3 hPa 0,0 l/m² 0 min 0 min 0 W/m² 22,5 km/h (4 Bft) 97,87 %
26.02.2026 02:56 9,4 °C 8,9 °C 5,0 °C 94 % 1020,2 hPa 0,0 l/m² 0 min 0 min 0 W/m² 12,9 km/h (3 Bft) 93,48 %
26.02.2026 02:58 9,5 °C 8,9 °C 5,0 °C 94 % 1020,1 hPa 0,0 l/m² 0 min 0 min 0 W/m² 22,5 km/h (4 Bft) 95,74 %
26.02.2026 03:00 9,4 °C 8,9 °C 5,0 °C 94 % 1020,1 hPa 0,0 l/m² 0 min 0 min 0 W/m² 25,7 km/h (4 Bft) 97,87 %
26.02.2026 03:02 9,4 °C 8,9 °C 5,0 °C 94 % 1020,1 hPa 0,0 l/m² 0 min 0 min 0 W/m² 22,5 km/h (4 Bft) 95,74 %
26.02.2026 03:04 9,4 °C 8,9 °C 5,0 °C 94 % 1020,1 hPa 0,0 l/m² 0 min 0 min 0 W/m² 25,7 km/h (4 Bft) 93,88 %
26.02.2026 03:06 9,4 °C 8,3 °C 5,0 °C 94 % 1020,1 hPa 0,0 l/m² 0 min 0 min 0 W/m² 16,1 km/h (3 Bft) 98,11 %
26.02.2026 03:08 9,4 °C 8,3 °C 5,0 °C 94 % 1020,1 hPa 0,0 l/m² 0 min 0 min 0 W/m² 16,1 km/h (3 Bft) 94,74 %
26.02.2026 03:10 9,4 °C 8,3 °C 5,0 °C 94 % 1020,1 hPa 0,0 l/m² 0 min 0 min 0 W/m² 12,9 km/h (3 Bft) 97,87 %
26.02.2026 03:12 9,4 °C 8,3 °C 5,0 °C 94 % 1020,1 hPa 0,0 l/m² 0 min 0 min 0 W/m² 19,3 km/h (3 Bft) 97,96 %
26.02.2026 03:14 9,4 °C 8,3 °C 5,0 °C 94 % 1020,0 hPa 0,0 l/m² 0 min 0 min 0 W/m² 19,3 km/h (3 Bft) 97,87 %
26.02.2026 03:16 9,4 °C 8,3 °C 5,0 °C 94 % 1020,0 hPa 0,0 l/m² 0 min 0 min 0 W/m² 12,9 km/h (3 Bft) 97,56 %
26.02.2026 03:18 9,4 °C 8,3 °C 5,0 °C 94 % 1019,9 hPa 0,0 l/m² 0 min 0 min 0 W/m² 22,5 km/h (4 Bft) 97,87 %
26.02.2026 03:20 9,4 °C 8,3 °C 5,0 °C 94 % 1020,0 hPa 0,0 l/m² 0 min 0 min 0 W/m² 16,1 km/h (3 Bft) 100,00 %
26.02.2026 03:22 9,4 °C 8,3 °C 5,0 °C 94 % 1020,0 hPa 0,0 l/m² 0 min 0 min 0 W/m² 16,1 km/h (3 Bft) 100,00 %
26.02.2026 03:24 9,4 °C 8,3 °C 5,0 °C 94 % 1019,9 hPa 0,0 l/m² 0 min 0 min 0 W/m² 22,5 km/h (4 Bft) 100,00 %
26.02.2026 03:26 9,4 °C 8,3 °C 5,0 °C 94 % 1019,9 hPa 0,0 l/m² 0 min 0 min 0 W/m² 19,3 km/h (3 Bft) 97,87 %
26.02.2026 03:28 9,4 °C 8,3 °C 5,0 °C 94 % 1019,9 hPa 0,0 l/m² 0 min 0 min 0 W/m² 19,3 km/h (3 Bft) 97,87 %
26.02.2026 03:30 9,4 °C 8,3 °C 5,0 °C 94 % 1019,8 hPa 0,0 l/m² 0 min 0 min 0 W/m² 22,5 km/h (4 Bft) 97,56 %
26.02.2026 03:32 9,3 °C 8,3 °C 5,0 °C 94 % 1019,8 hPa 0,0 l/m² 0 min 0 min 0 W/m² 19,3 km/h (3 Bft) 100,00 %
26.02.2026 03:34 9,3 °C 8,3 °C 5,0 °C 95 % 1019,8 hPa 0,0 l/m² 0 min 0 min 0 W/m² 16,1 km/h (3 Bft) 100,00 %
26.02.2026 03:36 9,3 °C 8,3 °C 5,0 °C 95 % 1019,8 hPa 0,0 l/m² 0 min 0 min 0 W/m² 16,1 km/h (3 Bft) 93,88 %
26.02.2026 03:38 9,3 °C 8,3 °C 5,0 °C 95 % 1019,7 hPa 0,0 l/m² 0 min 0 min 0 W/m² 22,5 km/h (4 Bft) 97,87 %
26.02.2026 03:40 9,3 °C 8,3 °C 5,0 °C 95 % 1019,7 hPa 0,0 l/m² 0 min 0 min 0 W/m² 16,1 km/h (3 Bft) 95,74 %
26.02.2026 03:42 9,3 °C 8,3 °C 5,0 °C 95 % 1019,8 hPa 0,0 l/m² 0 min 0 min 0 W/m² 19,3 km/h (3 Bft) 97,56 %
26.02.2026 03:44 9,3 °C 8,3 °C 5,0 °C 94 % 1019,8 hPa 0,0 l/m² 0 min 0 min 0 W/m² 22,5 km/h (4 Bft) 94,00 %
26.02.2026 03:46 9,3 °C 8,3 °C 5,0 °C 94 % 1019,8 hPa 0,0 l/m² 0 min 0 min 0 W/m² 16,1 km/h (3 Bft) 95,92 %
26.02.2026 03:48 9,3 °C 8,3 °C 5,0 °C 94 % 1019,8 hPa 0,0 l/m² 0 min 0 min 0 W/m² 19,3 km/h (3 Bft) 91,49 %
26.02.2026 03:50 9,2 °C 8,3 °C 5,0 °C 95 % 1019,8 hPa 0,0 l/m² 0 min 0 min 0 W/m² 19,3 km/h (3 Bft) 95,74 %
26.02.2026 03:52 9,2 °C 8,3 °C 5,0 °C 95 % 1019,8 hPa 0,0 l/m² 0 min 0 min 0 W/m² 19,3 km/h (3 Bft) 95,74 %
26.02.2026 03:54 9,2 °C 8,3 °C 5,0 °C 95 % 1019,8 hPa 0,0 l/m² 0 min 0 min 0 W/m² 16,1 km/h (3 Bft) 93,48 %
26.02.2026 03:56 9,2 °C 8,3 °C 5,0 °C 95 % 1019,9 hPa 0,0 l/m² 0 min 0 min 0 W/m² 19,3 km/h (3 Bft) 95,24 %
26.02.2026 03:58 9,2 °C 8,3 °C 5,0 °C 95 % 1019,9 hPa 0,0 l/m² 0 min 0 min 0 W/m² 16,1 km/h (3 Bft) 95,74 %
26.02.2026 04:00 9,2 °C 8,3 °C 5,0 °C 95 % 1019,8 hPa 0,0 l/m² 0 min 0 min 0 W/m² 12,9 km/h (3 Bft) 92,00 %
26.02.2026 04:02 9,2 °C 8,3 °C 5,0 °C 95 % 1019,9 hPa 0,0 l/m² 0 min 0 min 0 W/m² 12,9 km/h (3 Bft) 95,92 %
26.02.2026 04:04 9,2 °C 8,3 °C 5,0 °C 95 % 1019,8 hPa 0,0 l/m² 0 min 0 min 0 W/m² 19,3 km/h (3 Bft) 93,62 %
26.02.2026 04:06 9,2 °C 8,3 °C 5,0 °C 95 % 1019,8 hPa 0,0 l/m² 0 min 0 min 0 W/m² 16,1 km/h (3 Bft) 91,49 %
26.02.2026 04:08 9,2 °C 8,3 °C 5,0 °C 95 % 1019,9 hPa 0,0 l/m² 0 min 0 min 0 W/m² 16,1 km/h (3 Bft) 95,74 %
26.02.2026 04:10 9,2 °C 8,3 °C 5,0 °C 95 % 1019,8 hPa 0,0 l/m² 0 min 0 min 0 W/m² 22,5 km/h (4 Bft) 97,87 %
26.02.2026 04:12 9,2 °C 8,3 °C 5,0 °C 95 % 1019,8 hPa 0,0 l/m² 0 min 0 min 0 W/m² 16,1 km/h (3 Bft) 95,65 %
26.02.2026 04:14 9,1 °C 8,3 °C 5,0 °C 95 % 1019,8 hPa 0,0 l/m² 0 min 0 min 0 W/m² 16,1 km/h (3 Bft) 97,87 %
26.02.2026 04:16 9,1 °C 8,3 °C 5,0 °C 95 % 1019,8 hPa 0,0 l/m² 0 min 0 min 0 W/m² 16,1 km/h (3 Bft) 95,74 %
26.02.2026 04:18 9,1 °C 8,3 °C 5,0 °C 95 % 1019,8 hPa 0,0 l/m² 0 min 0 min 0 W/m² 22,5 km/h (4 Bft) 97,87 %
26.02.2026 04:20 9,1 °C 8,3 °C 5,0 °C 95 % 1019,8 hPa 0,0 l/m² 0 min 0 min 0 W/m² 16,1 km/h (3 Bft) 97,87 %
26.02.2026 04:22 9,1 °C 8,3 °C 5,0 °C 95 % 1019,8 hPa 0,0 l/m² 0 min 0 min 0 W/m² 19,3 km/h (3 Bft) 97,87 %
26.02.2026 04:24 9,1 °C 8,3 °C 5,0 °C 95 % 1019,8 hPa 0,0 l/m² 0 min 0 min 0 W/m² 16,1 km/h (3 Bft) 95,65 %
26.02.2026 04:26 9,1 °C 8,3 °C 4,4 °C 95 % 1019,8 hPa 0,0 l/m² 0 min 0 min 0 W/m² 16,1 km/h (3 Bft) 100,00 %
26.02.2026 04:28 9,1 °C 8,3 °C 4,4 °C 95 % 1019,8 hPa 0,0 l/m² 0 min 0 min 0 W/m² 22,5 km/h (4 Bft) 97,87 %
26.02.2026 04:30 9,1 °C 8,3 °C 4,4 °C 95 % 1019,8 hPa 0,0 l/m² 0 min 0 min 0 W/m² 12,9 km/h (3 Bft) 100,00 %
26.02.2026 04:32 9,1 °C 7,8 °C 4,4 °C 95 % 1019,8 hPa 0,0 l/m² 0 min 0 min 0 W/m² 16,1 km/h (3 Bft) 100,00 %
26.02.2026 04:34 9,0 °C 7,8 °C 4,4 °C 95 % 1019,9 hPa 0,0 l/m² 0 min 0 min 0 W/m² 12,9 km/h (3 Bft) 100,00 %
26.02.2026 04:36 9,0 °C 7,8 °C 4,4 °C 95 % 1019,9 hPa 0,0 l/m² 0 min 0 min 0 W/m² 16,1 km/h (3 Bft) 100,00 %
26.02.2026 04:38 9,0 °C 7,8 °C 4,4 °C 95 % 1020,0 hPa 0,0 l/m² 0 min 0 min 0 W/m² 16,1 km/h (3 Bft) 100,00 %
26.02.2026 04:40 9,0 °C 7,8 °C 4,4 °C 95 % 1020,0 hPa 0,0 l/m² 0 min 0 min 0 W/m² 16,1 km/h (3 Bft) 100,00 %
26.02.2026 04:42 8,9 °C 7,8 °C 4,4 °C 95 % 1020,0 hPa 0,0 l/m² 0 min 0 min 0 W/m² 12,9 km/h (3 Bft) 100,00 %
26.02.2026 04:44 8,9 °C 7,8 °C 4,4 °C 95 % 1020,0 hPa 0,0 l/m² 0 min 0 min 0 W/m² 6,4 km/h (2 Bft) 100,00 %
26.02.2026 04:46 8,9 °C 7,8 °C 4,4 °C 95 % 1019,9 hPa 0,0 l/m² 0 min 0 min 0 W/m² 19,3 km/h (3 Bft) 100,00 %
26.02.2026 04:48 8,9 °C 7,8 °C 4,4 °C 95 % 1020,0 hPa 0,0 l/m² 0 min 0 min 0 W/m² 6,4 km/h (2 Bft) 100,00 %
26.02.2026 04:50 8,9 °C 7,8 °C 4,4 °C 95 % 1020,0 hPa 0,0 l/m² 0 min 0 min 0 W/m² 12,9 km/h (3 Bft) 100,00 %
26.02.2026 04:52 8,9 °C 7,8 °C 4,4 °C 95 % 1020,0 hPa 0,0 l/m² 0 min 0 min 0 W/m² 12,9 km/h (3 Bft) 100,00 %
26.02.2026 04:54 8,9 °C 7,8 °C 4,4 °C 95 % 1020,0 hPa 0,0 l/m² 0 min 0 min 0 W/m² 19,3 km/h (3 Bft) 100,00 %
26.02.2026 04:56 8,9 °C 7,8 °C 4,4 °C 95 % 1020,0 hPa 0,0 l/m² 0 min 0 min 0 W/m² 12,9 km/h (3 Bft) 97,87 %
26.02.2026 04:58 8,8 °C 7,8 °C 4,4 °C 95 % 1020,0 hPa 0,0 l/m² 0 min 0 min 0 W/m² 12,9 km/h (3 Bft) 97,87 %
26.02.2026 05:00 8,8 °C 7,8 °C 4,4 °C 95 % 1020,0 hPa 0,0 l/m² 0 min 0 min 0 W/m² 16,1 km/h (3 Bft) 100,00 %
26.02.2026 05:02 8,8 °C 7,8 °C 4,4 °C 95 % 1020,0 hPa 0,0 l/m² 0 min 0 min 0 W/m² 9,7 km/h (2 Bft) 100,00 %
26.02.2026 05:04 8,8 °C 7,8 °C 4,4 °C 95 % 1020,0 hPa 0,0 l/m² 0 min 0 min 0 W/m² 16,1 km/h (3 Bft) 100,00 %
26.02.2026 05:06 8,8 °C 7,8 °C 4,4 °C 95 % 1020,1 hPa 0,0 l/m² 0 min 0 min 0 W/m² 16,1 km/h (3 Bft) 100,00 %
26.02.2026 05:08 8,8 °C 7,8 °C 4,4 °C 96 % 1020,1 hPa 0,0 l/m² 0 min 0 min 0 W/m² 16,1 km/h (3 Bft) 97,92 %
26.02.2026 05:10 8,8 °C 7,8 °C 4,4 °C 96 % 1020,2 hPa 0,0 l/m² 0 min 0 min 0 W/m² 22,5 km/h (4 Bft) 95,65 %
26.02.2026 05:12 8,8 °C 7,8 °C 4,4 °C 96 % 1020,2 hPa 0,0 l/m² 0 min 0 min 0 W/m² 12,9 km/h (3 Bft) 100,00 %
26.02.2026 05:14 8,8 °C 7,8 °C 4,4 °C 95 % 1020,2 hPa 0,0 l/m² 0 min 0 min 0 W/m² 9,7 km/h (2 Bft) 100,00 %
26.02.2026 05:16 8,8 °C 7,8 °C 4,4 °C 95 % 1020,3 hPa 0,0 l/m² 0 min 0 min 0 W/m² 12,9 km/h (3 Bft) 97,87 %
26.02.2026 05:18 8,8 °C 7,8 °C 4,4 °C 95 % 1020,3 hPa 0,0 l/m² 0 min 0 min 0 W/m² 12,9 km/h (3 Bft) 100,00 %
26.02.2026 05:20 8,8 °C 7,8 °C 4,4 °C 95 % 1020,3 hPa 0,0 l/m² 0 min 0 min 0 W/m² 12,9 km/h (3 Bft) 97,87 %
26.02.2026 05:22 8,7 °C 7,8 °C 4,4 °C 95 % 1020,3 hPa 0,0 l/m² 0 min 0 min 0 W/m² 9,7 km/h (2 Bft) 100,00 %
26.02.2026 05:24 8,7 °C 7,8 °C 4,4 °C 96 % 1020,3 hPa 0,0 l/m² 0 min 0 min 0 W/m² 16,1 km/h (3 Bft) 95,74 %
26.02.2026 05:26 8,7 °C 7,8 °C 4,4 °C 96 % 1020,4 hPa 0,0 l/m² 0 min 0 min 0 W/m² 12,9 km/h (3 Bft) 97,87 %
26.02.2026 05:28 8,7 °C 7,8 °C 4,4 °C 96 % 1020,4 hPa 0,0 l/m² 0 min 0 min 0 W/m² 6,4 km/h (2 Bft) 95,74 %
26.02.2026 05:30 8,7 °C 7,8 °C 4,4 °C 96 % 1020,3 hPa 0,0 l/m² 0 min 0 min 0 W/m² 12,9 km/h (3 Bft) 95,74 %
26.02.2026 05:32 8,7 °C 7,8 °C 4,4 °C 96 % 1020,2 hPa 0,0 l/m² 0 min 0 min 0 W/m² 12,9 km/h (3 Bft) 91,49 %
26.02.2026 05:34 8,7 °C 7,8 °C 4,4 °C 96 % 1020,4 hPa 0,0 l/m² 0 min 0 min 0 W/m² 9,7 km/h (2 Bft) 95,65 %
26.02.2026 05:36 8,7 °C 7,8 °C 4,4 °C 96 % 1020,4 hPa 0,0 l/m² 0 min 0 min 0 W/m² 19,3 km/h (3 Bft) 95,74 %
26.02.2026 05:38 8,7 °C 7,8 °C 4,4 °C 96 % 1020,3 hPa 0,0 l/m² 0 min 0 min 0 W/m² 12,9 km/h (3 Bft) 95,74 %
26.02.2026 05:40 8,7 °C 7,8 °C 4,4 °C 96 % 1020,3 hPa 0,0 l/m² 0 min 0 min 0 W/m² 16,1 km/h (3 Bft) 95,74 %
26.02.2026 05:42 8,6 °C 7,8 °C 4,4 °C 96 % 1020,3 hPa 0,0 l/m² 0 min 0 min 0 W/m² 12,9 km/h (3 Bft) 95,74 %
26.02.2026 05:44 8,6 °C 7,8 °C 4,4 °C 96 % 1020,3 hPa 0,0 l/m² 0 min 0 min 0 W/m² 12,9 km/h (3 Bft) 95,74 %
26.02.2026 05:46 8,6 °C 7,8 °C 4,4 °C 96 % 1020,3 hPa 0,0 l/m² 0 min 0 min 0 W/m² 12,9 km/h (3 Bft) 93,48 %
26.02.2026 05:48 8,6 °C 7,8 °C 4,4 °C 96 % 1020,3 hPa 0,0 l/m² 0 min 0 min 0 W/m² 12,9 km/h (3 Bft) 95,74 %
26.02.2026 05:50 8,6 °C 7,8 °C 4,4 °C 96 % 1020,2 hPa 0,0 l/m² 0 min 0 min 0 W/m² 16,1 km/h (3 Bft) 93,62 %
26.02.2026 05:52 8,6 °C 7,8 °C 4,4 °C 96 % 1020,3 hPa 0,0 l/m² 0 min 0 min 0 W/m² 6,4 km/h (2 Bft) 93,62 %
26.02.2026 05:54 8,6 °C 7,8 °C 4,4 °C 96 % 1020,3 hPa 0,0 l/m² 0 min 0 min 0 W/m² 12,9 km/h (3 Bft) 95,74 %
26.02.2026 05:56 8,6 °C 7,8 °C 4,4 °C 96 % 1020,1 hPa 0,0 l/m² 0 min 0 min 0 W/m² 12,9 km/h (3 Bft) 97,87 %
26.02.2026 05:58 8,6 °C 7,8 °C 4,4 °C 96 % 1020,1 hPa 0,0 l/m² 0 min 0 min 0 W/m² 16,1 km/h (3 Bft) 97,83 %
26.02.2026 06:00 8,6 °C 7,8 °C 4,4 °C 96 % 1020,2 hPa 0,0 l/m² 0 min 0 min 0 W/m² 12,9 km/h (3 Bft) 97,87 %
26.02.2026 06:02 8,6 °C 7,8 °C 4,4 °C 96 % 1020,3 hPa 0,0 l/m² 0 min 0 min 0 W/m² 16,1 km/h (3 Bft) 97,87 %
26.02.2026 06:04 8,6 °C 7,8 °C 4,4 °C 96 % 1020,4 hPa 0,0 l/m² 0 min 0 min 0 W/m² 12,9 km/h (3 Bft) 95,74 %
26.02.2026 06:07 8,6 °C 7,8 °C 4,4 °C 96 % 1020,4 hPa 0,0 l/m² 0 min 0 min 0 W/m² 19,3 km/h (3 Bft) 97,30 %
26.02.2026 06:08 8,6 °C 7,8 °C 4,4 °C 96 % 1020,4 hPa 0,0 l/m² 0 min 0 min 0 W/m² 16,1 km/h (3 Bft) 100,00 %
26.02.2026 06:12 8,6 °C 7,8 °C 4,4 °C 96 % 1020,3 hPa 0,0 l/m² 0 min 0 min 0 W/m² 16,1 km/h (3 Bft) 98,00 %
26.02.2026 06:14 8,6 °C 7,8 °C 4,4 °C 96 % 1020,3 hPa 0,0 l/m² 0 min 0 min 0 W/m² 22,5 km/h (4 Bft) 98,15 %
26.02.2026 06:16 8,6 °C 7,8 °C 4,4 °C 96 % 1020,3 hPa 0,0 l/m² 0 min 0 min 0 W/m² 16,1 km/h (3 Bft) 97,87 %
26.02.2026 06:18 8,6 °C 7,8 °C 4,4 °C 96 % 1020,3 hPa 0,0 l/m² 0 min 0 min 0 W/m² 19,3 km/h (3 Bft) 97,37 %
26.02.2026 06:20 8,6 °C 7,8 °C 4,4 °C 96 % 1020,3 hPa 0,0 l/m² 0 min 0 min 0 W/m² 19,3 km/h (3 Bft) 97,87 %
26.02.2026 06:22 8,6 °C 7,8 °C 4,4 °C 96 % 1020,3 hPa 0,0 l/m² 0 min 0 min 0 W/m² 12,9 km/h (3 Bft) 97,92 %
26.02.2026 06:24 8,5 °C 7,8 °C 4,4 °C 96 % 1020,4 hPa 0,0 l/m² 0 min 0 min 0 W/m² 16,1 km/h (3 Bft) 95,74 %
26.02.2026 06:26 8,6 °C 7,8 °C 4,4 °C 96 % 1020,4 hPa 0,0 l/m² 0 min 0 min 0 W/m² 16,1 km/h (3 Bft) 98,11 %
26.02.2026 06:28 8,5 °C 7,8 °C 4,4 °C 96 % 1020,4 hPa 0,0 l/m² 0 min 0 min 0 W/m² 12,9 km/h (3 Bft) 98,00 %
26.02.2026 06:30 8,5 °C 7,8 °C 4,4 °C 96 % 1020,5 hPa 0,0 l/m² 0 min 0 min 0 W/m² 19,3 km/h (3 Bft) 97,87 %
26.02.2026 06:32 8,5 °C 7,8 °C 4,4 °C 96 % 1020,4 hPa 0,0 l/m² 0 min 0 min 0 W/m² 19,3 km/h (3 Bft) 97,30 %
26.02.2026 06:34 8,5 °C 7,8 °C 4,4 °C 96 % 1020,4 hPa 0,0 l/m² 0 min 0 min 0 W/m² 16,1 km/h (3 Bft) 97,87 %
26.02.2026 06:36 8,5 °C 7,8 °C 4,4 °C 96 % 1020,6 hPa 0,0 l/m² 0 min 0 min 0 W/m² 12,9 km/h (3 Bft) 98,11 %
26.02.2026 06:38 8,5 °C 7,8 °C 4,4 °C 96 % 1020,6 hPa 0,0 l/m² 0 min 0 min 0 W/m² 9,7 km/h (2 Bft) 97,87 %
26.02.2026 06:40 8,4 °C 7,8 °C 4,4 °C 96 % 1020,6 hPa 0,0 l/m² 0 min 0 min 0 W/m² 9,7 km/h (2 Bft) 94,00 %
26.02.2026 06:42 8,4 °C 7,8 °C 4,4 °C 96 % 1020,5 hPa 0,0 l/m² 0 min 0 min 0 W/m² 12,9 km/h (3 Bft) 95,74 %
26.02.2026 06:44 8,4 °C 7,8 °C 4,4 °C 96 % 1020,5 hPa 0,0 l/m² 0 min 0 min 0 W/m² 12,9 km/h (3 Bft) 100,00 %
26.02.2026 06:46 8,4 °C 7,8 °C 4,4 °C 96 % 1020,5 hPa 0,0 l/m² 0 min 0 min 0 W/m² 16,1 km/h (3 Bft) 95,74 %
26.02.2026 06:48 8,4 °C 7,8 °C 4,4 °C 96 % 1020,5 hPa 0,0 l/m² 0 min 0 min 0 W/m² 9,7 km/h (2 Bft) 96,23 %
26.02.2026 06:50 8,4 °C 7,8 °C 4,4 °C 96 % 1020,5 hPa 0,0 l/m² 0 min 0 min 0 W/m² 16,1 km/h (3 Bft) 96,00 %
26.02.2026 06:52 8,4 °C 7,8 °C 4,4 °C 96 % 1020,6 hPa 0,0 l/m² 0 min 0 min 0 W/m² 16,1 km/h (3 Bft) 97,30 %
26.02.2026 06:54 8,4 °C 7,8 °C 4,4 °C 96 % 1020,6 hPa 0,0 l/m² 0 min 0 min 0 W/m² 19,3 km/h (3 Bft) 95,74 %
26.02.2026 06:56 8,4 °C 7,8 °C 4,4 °C 96 % 1020,6 hPa 0,0 l/m² 0 min 0 min 0 W/m² 12,9 km/h (3 Bft) 97,87 %
26.02.2026 06:58 8,4 °C 7,8 °C 4,4 °C 96 % 1020,6 hPa 0,0 l/m² 0 min 0 min 0 W/m² 16,1 km/h (3 Bft) 97,87 %
26.02.2026 07:00 8,4 °C 7,8 °C 4,4 °C 96 % 1020,7 hPa 0,0 l/m² 0 min 0 min 0 W/m² 22,5 km/h (4 Bft) 97,87 %
26.02.2026 07:02 8,4 °C 7,8 °C 4,4 °C 96 % 1020,6 hPa 0,0 l/m² 0 min 0 min 0 W/m² 12,9 km/h (3 Bft) 100,00 %
26.02.2026 07:04 8,4 °C 7,8 °C 4,4 °C 96 % 1020,6 hPa 0,0 l/m² 0 min 0 min 0 W/m² 16,1 km/h (3 Bft) 96,00 %
26.02.2026 07:06 8,3 °C 7,8 °C 4,4 °C 97 % 1020,7 hPa 0,0 l/m² 0 min 0 min 0 W/m² 16,1 km/h (3 Bft) 97,87 %
26.02.2026 07:08 8,3 °C 7,8 °C 4,4 °C 97 % 1020,7 hPa 0,0 l/m² 0 min 0 min 0 W/m² 19,3 km/h (3 Bft) 100,00 %
26.02.2026 07:10 8,3 °C 7,8 °C 4,4 °C 97 % 1020,6 hPa 0,0 l/m² 0 min 0 min 0 W/m² 16,1 km/h (3 Bft) 100,00 %
26.02.2026 07:12 8,3 °C 7,8 °C 4,4 °C 97 % 1020,6 hPa 0,0 l/m² 0 min 0 min 0 W/m² 19,3 km/h (3 Bft) 100,00 %
26.02.2026 07:14 8,3 °C 7,2 °C 4,4 °C 97 % 1020,6 hPa 0,0 l/m² 0 min 0 min 0 W/m² 19,3 km/h (3 Bft) 97,96 %
26.02.2026 07:16 8,3 °C 7,2 °C 4,4 °C 97 % 1020,6 hPa 0,0 l/m² 0 min 0 min 0 W/m² 19,3 km/h (3 Bft) 97,87 %
26.02.2026 07:18 8,3 °C 7,2 °C 4,4 °C 97 % 1020,6 hPa 0,0 l/m² 0 min 0 min 0 W/m² 16,1 km/h (3 Bft) 96,23 %
26.02.2026 07:20 8,3 °C 7,2 °C 4,4 °C 97 % 1020,6 hPa 0,0 l/m² 0 min 0 min 0 W/m² 19,3 km/h (3 Bft) 97,87 %
26.02.2026 07:22 8,3 °C 7,2 °C 3,9 °C 96 % 1020,6 hPa 0,0 l/m² 0 min 0 min 0 W/m² 16,1 km/h (3 Bft) 97,37 %
26.02.2026 07:24 8,3 °C 7,2 °C 3,9 °C 96 % 1020,5 hPa 0,0 l/m² 0 min 0 min 0 W/m² 16,1 km/h (3 Bft) 98,00 %
26.02.2026 07:26 8,3 °C 7,2 °C 3,9 °C 96 % 1020,5 hPa 0,0 l/m² 0 min 0 min 0 W/m² 16,1 km/h (3 Bft) 97,83 %
26.02.2026 07:28 8,3 °C 7,2 °C 3,9 °C 96 % 1020,5 hPa 0,0 l/m² 0 min 0 min 0 W/m² 19,3 km/h (3 Bft) 95,74 %
26.02.2026 07:30 8,2 °C 7,2 °C 3,9 °C 96 % 1020,5 hPa 0,0 l/m² 0 min 0 min 0 W/m² 22,5 km/h (4 Bft) 98,11 %
26.02.2026 07:32 8,2 °C 7,2 °C 3,9 °C 96 % 1020,5 hPa 0,0 l/m² 0 min 0 min 3 W/m² 12,9 km/h (3 Bft) 97,37 %
26.02.2026 07:34 8,2 °C 7,2 °C 3,9 °C 96 % 1020,7 hPa 0,0 l/m² 0 min 0 min 5 W/m² 12,9 km/h (3 Bft) 98,00 %
26.02.2026 07:36 8,2 °C 7,2 °C 3,9 °C 96 % 1020,7 hPa 0,0 l/m² 0 min 0 min 7 W/m² 16,1 km/h (3 Bft) 97,87 %
26.02.2026 07:38 8,2 °C 7,2 °C 3,9 °C 97 % 1020,8 hPa 0,0 l/m² 0 min 0 min 7 W/m² 12,9 km/h (3 Bft) 98,11 %
26.02.2026 07:40 8,2 °C 7,2 °C 3,9 °C 97 % 1020,8 hPa 0,0 l/m² 0 min 0 min 9 W/m² 6,4 km/h (2 Bft) 97,37 %
26.02.2026 07:42 8,2 °C 7,2 °C 3,9 °C 97 % 1020,8 hPa 0,0 l/m² 0 min 0 min 11 W/m² 12,9 km/h (3 Bft) 95,92 %
26.02.2026 07:44 8,2 °C 7,2 °C 3,9 °C 97 % 1020,8 hPa 0,0 l/m² 0 min 0 min 12 W/m² 12,9 km/h (3 Bft) 97,87 %
26.02.2026 07:46 8,2 °C 7,2 °C 3,9 °C 97 % 1020,8 hPa 0,0 l/m² 0 min 0 min 14 W/m² 6,4 km/h (2 Bft) 98,11 %
26.02.2026 07:48 8,1 °C 7,2 °C 3,9 °C 97 % 1020,8 hPa 0,0 l/m² 0 min 0 min 16 W/m² 12,9 km/h (3 Bft) 97,37 %
26.02.2026 07:50 8,2 °C 7,2 °C 3,9 °C 97 % 1020,8 hPa 0,0 l/m² 0 min 0 min 16 W/m² 12,9 km/h (3 Bft) 100,00 %
26.02.2026 07:52 8,1 °C 7,2 °C 3,9 °C 97 % 1020,8 hPa 0,0 l/m² 0 min 0 min 16 W/m² 16,1 km/h (3 Bft) 100,00 %
26.02.2026 07:54 8,1 °C 7,2 °C 3,9 °C 97 % 1020,6 hPa 0,0 l/m² 0 min 0 min 16 W/m² 16,1 km/h (3 Bft) 100,00 %
26.02.2026 07:56 8,2 °C 7,2 °C 3,9 °C 97 % 1020,6 hPa 0,0 l/m² 0 min 0 min 18 W/m² 12,9 km/h (3 Bft) 100,00 %
26.02.2026 07:58 8,1 °C 7,2 °C 3,9 °C 97 % 1020,6 hPa 0,0 l/m² 0 min 0 min 19 W/m² 16,1 km/h (3 Bft) 100,00 %
26.02.2026 08:00 8,1 °C 7,2 °C 3,9 °C 97 % 1020,6 hPa 0,0 l/m² 0 min 0 min 21 W/m² 16,1 km/h (3 Bft) 100,00 %
26.02.2026 08:02 8,1 °C 7,2 °C 3,9 °C 97 % 1020,6 hPa 0,0 l/m² 0 min 0 min 23 W/m² 16,1 km/h (3 Bft) 100,00 %
26.02.2026 08:04 8,1 °C 7,2 °C 3,9 °C 97 % 1020,6 hPa 0,0 l/m² 0 min 0 min 25 W/m² 16,1 km/h (3 Bft) 100,00 %
26.02.2026 08:06 8,1 °C 7,2 °C 3,9 °C 97 % 1020,7 hPa 0,0 l/m² 0 min 0 min 26 W/m² 12,9 km/h (3 Bft) 100,00 %
26.02.2026 08:08 8,1 °C 7,8 °C 3,9 °C 97 % 1020,8 hPa 0,0 l/m² 0 min 0 min 26 W/m² 16,1 km/h (3 Bft) 100,00 %
26.02.2026 08:10 8,1 °C 7,8 °C 3,9 °C 97 % 1020,8 hPa 0,0 l/m² 0 min 0 min 28 W/m² 12,9 km/h (3 Bft) 100,00 %
26.02.2026 08:12 8,1 °C 7,8 °C 3,9 °C 97 % 1020,8 hPa 0,0 l/m² 0 min 0 min 29 W/m² 16,1 km/h (3 Bft) 100,00 %
26.02.2026 08:14 8,1 °C 7,8 °C 4,4 °C 97 % 1020,7 hPa 0,0 l/m² 0 min 0 min 31 W/m² 16,1 km/h (3 Bft) 100,00 %
26.02.2026 08:16 8,2 °C 7,8 °C 4,4 °C 97 % 1020,8 hPa 0,0 l/m² 0 min 0 min 33 W/m² 19,3 km/h (3 Bft) 100,00 %
26.02.2026 08:18 8,2 °C 7,8 °C 4,4 °C 97 % 1020,9 hPa 0,0 l/m² 0 min 0 min 34 W/m² 16,1 km/h (3 Bft) 100,00 %
26.02.2026 08:20 8,2 °C 7,8 °C 4,4 °C 97 % 1020,9 hPa 0,0 l/m² 0 min 0 min 37 W/m² 6,4 km/h (2 Bft) 100,00 %
26.02.2026 08:22 8,2 °C 7,8 °C 4,4 °C 97 % 1020,9 hPa 0,0 l/m² 0 min 0 min 40 W/m² 16,1 km/h (3 Bft) 97,87 %
26.02.2026 08:24 8,2 °C 7,8 °C 4,4 °C 97 % 1021,0 hPa 0,0 l/m² 0 min 0 min 43 W/m² 12,9 km/h (3 Bft) 95,74 %
26.02.2026 08:26 8,2 °C 7,8 °C 4,4 °C 97 % 1021,0 hPa 0,0 l/m² 0 min 0 min 46 W/m² 16,1 km/h (3 Bft) 97,87 %
26.02.2026 08:28 8,3 °C 7,8 °C 4,4 °C 97 % 1021,0 hPa 0,0 l/m² 0 min 0 min 48 W/m² 16,1 km/h (3 Bft) 96,00 %
26.02.2026 08:30 8,3 °C 8,3 °C 4,4 °C 97 % 1021,1 hPa 0,0 l/m² 0 min 0 min 52 W/m² 6,4 km/h (2 Bft) 97,83 %
26.02.2026 08:32 8,3 °C 8,3 °C 4,4 °C 97 % 1021,1 hPa 0,0 l/m² 0 min 0 min 54 W/m² 9,7 km/h (2 Bft) 97,96 %
26.02.2026 08:34 8,3 °C 8,3 °C 4,4 °C 97 % 1021,2 hPa 0,0 l/m² 0 min 0 min 57 W/m² 12,9 km/h (3 Bft) 97,87 %
26.02.2026 08:36 8,3 °C 8,3 °C 4,4 °C 97 % 1021,2 hPa 0,0 l/m² 0 min 0 min 61 W/m² 12,9 km/h (3 Bft) 97,83 %
26.02.2026 08:38 8,4 °C 8,3 °C 4,4 °C 97 % 1021,1 hPa 0,0 l/m² 0 min 0 min 63 W/m² 12,9 km/h (3 Bft) 97,87 %
26.02.2026 08:40 8,4 °C 8,3 °C 4,4 °C 97 % 1021,1 hPa 0,0 l/m² 0 min 0 min 67 W/m² 12,9 km/h (3 Bft) 95,74 %
26.02.2026 08:42 8,4 °C 8,3 °C 4,4 °C 97 % 1021,1 hPa 0,0 l/m² 0 min 0 min 72 W/m² 22,5 km/h (4 Bft) 97,62 %
26.02.2026 08:44 8,4 °C 8,3 °C 4,4 °C 97 % 1021,2 hPa 0,0 l/m² 0 min 0 min 77 W/m² 6,4 km/h (2 Bft) 97,87 %
26.02.2026 08:46 8,5 °C 8,3 °C 5,0 °C 97 % 1021,1 hPa 0,0 l/m² 0 min 0 min 82 W/m² 16,1 km/h (3 Bft) 96,00 %
26.02.2026 08:48 8,5 °C 8,9 °C 5,0 °C 97 % 1021,2 hPa 0,0 l/m² 0 min 0 min 93 W/m² 16,1 km/h (3 Bft) 95,83 %
26.02.2026 08:50 8,6 °C 8,9 °C 5,0 °C 97 % 1021,2 hPa 0,0 l/m² 2 min 0 min 115 W/m² 12,9 km/h (3 Bft) 95,74 %
26.02.2026 08:52 8,6 °C 8,9 °C 5,0 °C 97 % 1021,2 hPa 0,0 l/m² 2 min 0 min 126 W/m² 12,9 km/h (3 Bft) 95,35 %
26.02.2026 08:54 8,7 °C 9,4 °C 5,0 °C 97 % 1021,2 hPa 0,0 l/m² 2 min 0 min 135 W/m² 19,3 km/h (3 Bft) 95,65 %
26.02.2026 08:56 8,7 °C 9,4 °C 5,0 °C 97 % 1021,3 hPa 0,0 l/m² 2 min 0 min 124 W/m² 16,1 km/h (3 Bft) 96,00 %
26.02.2026 08:58 8,8 °C 10,6 °C 5,6 °C 97 % 1021,4 hPa 0,0 l/m² 2 min 0 min 126 W/m² 19,3 km/h (3 Bft) 93,75 %
26.02.2026 09:00 8,8 °C 10,6 °C 5,6 °C 97 % 1021,3 hPa 0,0 l/m² 2 min 0 min 130 W/m² 12,9 km/h (3 Bft) 93,62 %
26.02.2026 09:02 8,9 °C 11,1 °C 5,6 °C 97 % 1021,3 hPa 0,0 l/m² 2 min 0 min 135 W/m² 9,7 km/h (2 Bft) 97,67 %
26.02.2026 09:04 9,0 °C 11,1 °C 5,6 °C 97 % 1021,3 hPa 0,0 l/m² 2 min 0 min 134 W/m² 9,7 km/h (2 Bft) 94,00 %
26.02.2026 09:06 9,1 °C 10,6 °C 5,6 °C 97 % 1021,3 hPa 0,0 l/m² 2 min 0 min 133 W/m² 16,1 km/h (3 Bft) 95,92 %
26.02.2026 09:08 9,1 °C 10,6 °C 5,6 °C 97 % 1021,3 hPa 0,0 l/m² 2 min 0 min 133 W/m² 12,9 km/h (3 Bft) 95,83 %
26.02.2026 09:10 9,1 °C 10,6 °C 5,6 °C 97 % 1021,3 hPa 0,0 l/m² 0 min 0 min 118 W/m² 16,1 km/h (3 Bft) 95,65 %
26.02.2026 09:12 9,1 °C 10,6 °C 5,6 °C 97 % 1021,4 hPa 0,0 l/m² 2 min 0 min 140 W/m² 12,9 km/h (3 Bft) 95,74 %
26.02.2026 09:14 9,2 °C 10,6 °C 5,6 °C 97 % 1021,4 hPa 0,0 l/m² 2 min 0 min 154 W/m² 6,4 km/h (2 Bft) 97,87 %
26.02.2026 09:16 9,2 °C 10,6 °C 5,6 °C 97 % 1021,5 hPa 0,0 l/m² 2 min 0 min 188 W/m² 12,9 km/h (3 Bft) 95,74 %
26.02.2026 09:18 9,3 °C 11,7 °C 6,1 °C 97 % 1021,6 hPa 0,0 l/m² 2 min 0 min 213 W/m² 6,4 km/h (2 Bft) 95,74 %
26.02.2026 09:20 9,3 °C 11,7 °C 6,1 °C 97 % 1021,5 hPa 0,0 l/m² 2 min 0 min 195 W/m² 12,9 km/h (3 Bft) 92,68 %
26.02.2026 09:22 9,4 °C 11,7 °C 6,1 °C 97 % 1021,5 hPa 0,0 l/m² 2 min 0 min 180 W/m² 16,1 km/h (3 Bft) 92,00 %
26.02.2026 09:24 9,4 °C 12,2 °C 6,1 °C 97 % 1021,5 hPa 0,0 l/m² 2 min 0 min 172 W/m² 9,7 km/h (2 Bft) 95,92 %
26.02.2026 09:26 9,6 °C 12,2 °C 6,7 °C 97 % 1021,5 hPa 0,0 l/m² 2 min 0 min 187 W/m² 12,9 km/h (3 Bft) 95,74 %
26.02.2026 09:28 9,6 °C 12,2 °C 6,7 °C 97 % 1021,5 hPa 0,0 l/m² 2 min 0 min 209 W/m² 12,9 km/h (3 Bft) 95,24 %
26.02.2026 09:30 9,7 °C 12,2 °C 6,7 °C 97 % 1021,5 hPa 0,0 l/m² 2 min 0 min 159 W/m² 6,4 km/h (2 Bft) 95,92 %
26.02.2026 09:32 9,7 °C 12,2 °C 6,7 °C 97 % 1021,4 hPa 0,0 l/m² 2 min 0 min 181 W/m² 12,9 km/h (3 Bft) 93,62 %
26.02.2026 09:34 9,8 °C 11,7 °C 6,7 °C 97 % 1021,4 hPa 0,0 l/m² 0 min 0 min 106 W/m² 6,4 km/h (2 Bft) 93,88 %
26.02.2026 09:36 9,8 °C 11,1 °C 6,7 °C 97 % 1021,4 hPa 0,0 l/m² 0 min 0 min 83 W/m² 12,9 km/h (3 Bft) 95,74 %
26.02.2026 09:38 9,8 °C 10,6 °C 6,7 °C 97 % 1021,4 hPa 0,0 l/m² 0 min 0 min 77 W/m² 9,7 km/h (2 Bft) 95,74 %
26.02.2026 09:40 9,9 °C 10,6 °C 6,1 °C 97 % 1021,4 hPa 0,0 l/m² 0 min 0 min 79 W/m² 12,9 km/h (3 Bft) 95,12 %
26.02.2026 09:42 9,9 °C 10,6 °C 6,7 °C 97 % 1021,3 hPa 0,0 l/m² 0 min 0 min 81 W/m² 9,7 km/h (2 Bft) 94,00 %
26.02.2026 09:44 9,9 °C 10,6 °C 6,1 °C 97 % 1021,3 hPa 0,0 l/m² 0 min 0 min 85 W/m² 12,9 km/h (3 Bft) 98,00 %
26.02.2026 09:46 9,9 °C 10,6 °C 6,1 °C 97 % 1021,3 hPa 0,0 l/m² 0 min 0 min 61 W/m² 9,7 km/h (2 Bft) 97,83 %
26.02.2026 09:48 10,0 °C 10,6 °C 6,1 °C 97 % 1021,3 hPa 0,0 l/m² 0 min 0 min 59 W/m² 9,7 km/h (2 Bft) 100,00 %
26.02.2026 09:50 10,0 °C 10,6 °C 6,1 °C 97 % 1021,4 hPa 0,0 l/m² 0 min 0 min 70 W/m² 6,4 km/h (2 Bft) 100,00 %
26.02.2026 09:52 10,1 °C 10,6 °C 6,1 °C 97 % 1021,4 hPa 0,0 l/m² 0 min 0 min 76 W/m² 6,4 km/h (2 Bft) 97,96 %
26.02.2026 09:54 10,1 °C 10,6 °C 6,1 °C 96 % 1021,4 hPa 0,0 l/m² 0 min 0 min 75 W/m² 9,7 km/h (2 Bft) 100,00 %
26.02.2026 09:56 10,1 °C 10,6 °C 6,1 °C 97 % 1021,4 hPa 0,0 l/m² 0 min 0 min 78 W/m² 12,9 km/h (3 Bft) 97,83 %
26.02.2026 09:58 10,1 °C 11,1 °C 6,1 °C 96 % 1021,3 hPa 0,0 l/m² 0 min 0 min 132 W/m² 12,9 km/h (3 Bft) 100,00 %
26.02.2026 10:00 10,1 °C 11,7 °C 6,7 °C 96 % 1021,3 hPa 0,0 l/m² 2 min 0 min 263 W/m² 12,9 km/h (3 Bft) 98,00 %
26.02.2026 10:02 10,2 °C 11,7 °C 6,7 °C 96 % 1021,4 hPa 0,0 l/m² 2 min 0 min 247 W/m² 16,1 km/h (3 Bft) 91,84 %
26.02.2026 10:04 10,3 °C 12,2 °C 6,7 °C 96 % 1021,4 hPa 0,0 l/m² 0 min 0 min 143 W/m² 9,7 km/h (2 Bft) 97,96 %
26.02.2026 10:06 10,3 °C 12,8 °C 6,7 °C 96 % 1021,5 hPa 0,0 l/m² 0 min 0 min 177 W/m² 6,4 km/h (2 Bft) 100,00 %
26.02.2026 10:08 10,4 °C 13,3 °C 6,7 °C 96 % 1021,5 hPa 0,0 l/m² 0 min 0 min 141 W/m² 9,7 km/h (2 Bft) 100,00 %
26.02.2026 10:10 10,5 °C 13,9 °C 7,2 °C 96 % 1021,5 hPa 0,0 l/m² 0 min 0 min 167 W/m² 16,1 km/h (3 Bft) 100,00 %
26.02.2026 10:12 10,6 °C 14,4 °C 7,2 °C 96 % 1021,6 hPa 0,0 l/m² 2 min 0 min 208 W/m² 12,9 km/h (3 Bft) 98,18 %
26.02.2026 10:14 10,7 °C 15,0 °C 7,2 °C 96 % 1021,6 hPa 0,0 l/m² 0 min 0 min 165 W/m² 12,9 km/h (3 Bft) 100,00 %
26.02.2026 10:16 10,7 °C 15,0 °C 7,8 °C 96 % 1021,6 hPa 0,0 l/m² 0 min 0 min 114 W/m² 16,1 km/h (3 Bft) 100,00 %
26.02.2026 10:18 10,8 °C 16,1 °C 7,8 °C 96 % 1021,6 hPa 0,0 l/m² 0 min 0 min 128 W/m² 6,4 km/h (2 Bft) 97,87 %
26.02.2026 10:20 10,9 °C 17,2 °C 7,8 °C 96 % 1021,7 hPa 0,0 l/m² 2 min 0 min 190 W/m² 6,4 km/h (2 Bft) 100,00 %
26.02.2026 10:22 11,1 °C 17,8 °C 7,8 °C 96 % 1021,7 hPa 0,0 l/m² 2 min 0 min 225 W/m² 9,7 km/h (2 Bft) 100,00 %
26.02.2026 10:24 11,2 °C 18,3 °C 8,3 °C 96 % 1021,7 hPa 0,0 l/m² 2 min 0 min 226 W/m² 12,9 km/h (3 Bft) 98,00 %
26.02.2026 10:26 11,3 °C 18,3 °C 8,3 °C 95 % 1021,6 hPa 0,0 l/m² 2 min 0 min 217 W/m² 12,9 km/h (3 Bft) 100,00 %
26.02.2026 10:28 11,4 °C 18,3 °C 8,3 °C 96 % 1021,6 hPa 0,0 l/m² 2 min 0 min 202 W/m² 9,7 km/h (2 Bft) 100,00 %
26.02.2026 10:30 11,6 °C 18,3 °C 8,3 °C 95 % 1021,5 hPa 0,0 l/m² 2 min 0 min 215 W/m² 9,7 km/h (2 Bft) 100,00 %
26.02.2026 10:32 11,8 °C 18,9 °C 8,9 °C 95 % 1021,5 hPa 0,0 l/m² 2 min 0 min 267 W/m² 6,4 km/h (2 Bft) 100,00 %
26.02.2026 10:34 11,9 °C 18,9 °C 8,9 °C 95 % 1021,5 hPa 0,0 l/m² 2 min 0 min 301 W/m² 16,1 km/h (3 Bft) 97,87 %
26.02.2026 10:36 12,1 °C 18,3 °C 8,9 °C 95 % 1021,5 hPa 0,0 l/m² 2 min 0 min 335 W/m² 12,9 km/h (3 Bft) 100,00 %
26.02.2026 10:38 12,2 °C 18,3 °C 9,4 °C 94 % 1021,4 hPa 0,0 l/m² 2 min 0 min 343 W/m² 16,1 km/h (3 Bft) 100,00 %
26.02.2026 10:40 12,3 °C 18,3 °C 9,4 °C 94 % 1021,4 hPa 0,0 l/m² 2 min 0 min 316 W/m² 19,3 km/h (3 Bft) 100,00 %
26.02.2026 10:42 12,5 °C 18,9 °C 9,4 °C 93 % 1021,4 hPa 0,0 l/m² 2 min 0 min 307 W/m² 16,1 km/h (3 Bft) 97,92 %
26.02.2026 10:44 12,6 °C 18,9 °C 9,4 °C 93 % 1021,4 hPa 0,0 l/m² 2 min 0 min 283 W/m² 16,1 km/h (3 Bft) 100,00 %
26.02.2026 10:46 12,8 °C 19,4 °C 9,4 °C 92 % 1021,5 hPa 0,0 l/m² 2 min 0 min 346 W/m² 12,9 km/h (3 Bft) 100,00 %
26.02.2026 10:48 12,9 °C 20,0 °C 10,0 °C 92 % 1021,5 hPa 0,0 l/m² 2 min 0 min 357 W/m² 12,9 km/h (3 Bft) 100,00 %
26.02.2026 10:50 13,1 °C 20,6 °C 10,0 °C 91 % 1021,5 hPa 0,0 l/m² 2 min 0 min 339 W/m² 6,4 km/h (2 Bft) 100,00 %
26.02.2026 10:52 13,2 °C 20,6 °C 10,0 °C 91 % 1021,5 hPa 0,0 l/m² 2 min 0 min 378 W/m² 12,9 km/h (3 Bft) 100,00 %
26.02.2026 10:54 13,4 °C 20,6 °C 10,0 °C 90 % 1021,5 hPa 0,0 l/m² 2 min 0 min 379 W/m² 12,9 km/h (3 Bft) 97,14 %
26.02.2026 10:56 13,6 °C 20,6 °C 10,6 °C 90 % 1021,5 hPa 0,0 l/m² 2 min 0 min 380 W/m² 12,9 km/h (3 Bft) 100,00 %
26.02.2026 10:58 13,7 °C 21,1 °C 10,6 °C 89 % 1021,5 hPa 0,0 l/m² 2 min 0 min 386 W/m² 6,4 km/h (2 Bft) 98,15 %
26.02.2026 11:00 13,8 °C 21,1 °C 10,6 °C 88 % 1021,5 hPa 0,0 l/m² 2 min 0 min 388 W/m² 12,9 km/h (3 Bft) 95,74 %
26.02.2026 11:02 14,0 °C 20,6 °C 11,1 °C 88 % 1021,5 hPa 0,0 l/m² 2 min 0 min 388 W/m² 16,1 km/h (3 Bft) 95,92 %
26.02.2026 11:04 14,2 °C 22,2 °C 12,2 °C 87 % 1021,5 hPa 0,0 l/m² 2 min 0 min 389 W/m² 9,7 km/h (2 Bft) 98,00 %
26.02.2026 11:06 14,3 °C 22,2 °C 12,8 °C 87 % 1021,6 hPa 0,0 l/m² 2 min 0 min 393 W/m² 16,1 km/h (3 Bft) 97,87 %
26.02.2026 11:08 14,3 °C 21,7 °C 12,8 °C 86 % 1021,6 hPa 0,0 l/m² 2 min 0 min 397 W/m² 12,9 km/h (3 Bft) 97,22 %
26.02.2026 11:10 14,4 °C 22,2 °C 13,9 °C 85 % 1021,6 hPa 0,0 l/m² 2 min 0 min 403 W/m² 6,4 km/h (2 Bft) 95,65 %
26.02.2026 11:12 14,6 °C 22,8 °C 14,4 °C 85 % 1021,6 hPa 0,0 l/m² 2 min 0 min 408 W/m² 6,4 km/h (2 Bft) 94,44 %
26.02.2026 11:14 14,7 °C 22,8 °C 15,0 °C 85 % 1021,5 hPa 0,0 l/m² 2 min 0 min 405 W/m² 12,9 km/h (3 Bft) 95,65 %
26.02.2026 11:16 14,8 °C 23,3 °C 15,6 °C 84 % 1021,5 hPa 0,0 l/m² 2 min 0 min 410 W/m² 12,9 km/h (3 Bft) 93,62 %
26.02.2026 11:18 14,9 °C 22,8 °C 16,1 °C 84 % 1021,6 hPa 0,0 l/m² 2 min 0 min 418 W/m² 12,9 km/h (3 Bft) 94,00 %
26.02.2026 11:20 15,1 °C 22,8 °C 16,7 °C 84 % 1021,5 hPa 0,0 l/m² 2 min 0 min 418 W/m² 19,3 km/h (3 Bft) 95,74 %
26.02.2026 11:22 15,2 °C 22,8 °C 16,7 °C 83 % 1021,5 hPa 0,0 l/m² 2 min 0 min 421 W/m² 16,1 km/h (3 Bft) 94,59 %
26.02.2026 11:24 15,3 °C 23,3 °C 16,7 °C 83 % 1021,5 hPa 0,0 l/m² 2 min 0 min 425 W/m² 6,4 km/h (2 Bft) 95,74 %
26.02.2026 11:26 15,4 °C 23,3 °C 16,7 °C 83 % 1021,4 hPa 0,0 l/m² 2 min 0 min 425 W/m² 12,9 km/h (3 Bft) 95,74 %
26.02.2026 11:28 15,6 °C 22,8 °C 16,7 °C 83 % 1021,4 hPa 0,0 l/m² 2 min 0 min 431 W/m² 16,1 km/h (3 Bft) 96,36 %
26.02.2026 11:30 15,7 °C 22,8 °C 16,7 °C 82 % 1021,4 hPa 0,0 l/m² 2 min 0 min 433 W/m² 22,5 km/h (4 Bft) 95,74 %
26.02.2026 11:32 15,7 °C 22,8 °C 17,2 °C 81 % 1021,4 hPa 0,0 l/m² 2 min 0 min 435 W/m² 16,1 km/h (3 Bft) 96,00 %
26.02.2026 11:34 15,8 °C 22,8 °C 17,2 °C 82 % 1021,4 hPa 0,0 l/m² 2 min 0 min 433 W/m² 12,9 km/h (3 Bft) 94,29 %
26.02.2026 11:36 15,9 °C 22,8 °C 17,2 °C 82 % 1021,4 hPa 0,0 l/m² 2 min 0 min 437 W/m² 19,3 km/h (3 Bft) 95,74 %
26.02.2026 11:38 15,9 °C 22,8 °C 17,2 °C 81 % 1021,4 hPa 0,0 l/m² 2 min 0 min 442 W/m² 12,9 km/h (3 Bft) 95,74 %
26.02.2026 11:40 16,1 °C 22,8 °C 17,2 °C 81 % 1021,4 hPa 0,0 l/m² 2 min 0 min 441 W/m² 12,9 km/h (3 Bft) 93,62 %
26.02.2026 11:42 16,1 °C 22,8 °C 17,2 °C 81 % 1021,4 hPa 0,0 l/m² 2 min 0 min 442 W/m² 16,1 km/h (3 Bft) 97,87 %
26.02.2026 11:44 16,2 °C 22,8 °C 17,2 °C 80 % 1021,3 hPa 0,0 l/m² 2 min 0 min 441 W/m² 19,3 km/h (3 Bft) 97,83 %
26.02.2026 11:46 16,2 °C 22,2 °C 17,2 °C 81 % 1021,3 hPa 0,0 l/m² 2 min 0 min 443 W/m² 19,3 km/h (3 Bft) 97,87 %
26.02.2026 11:48 16,3 °C 22,2 °C 17,2 °C 80 % 1021,3 hPa 0,0 l/m² 2 min 0 min 443 W/m² 16,1 km/h (3 Bft) 100,00 %
26.02.2026 11:50 16,3 °C 22,2 °C 17,2 °C 80 % 1021,3 hPa 0,0 l/m² 2 min 0 min 448 W/m² 25,7 km/h (4 Bft) 100,00 %
26.02.2026 11:52 16,4 °C 21,7 °C 17,2 °C 79 % 1021,3 hPa 0,0 l/m² 2 min 0 min 446 W/m² 35,4 km/h (5 Bft) 100,00 %
26.02.2026 11:54 16,4 °C 21,7 °C 16,7 °C 79 % 1021,3 hPa 0,0 l/m² 2 min 0 min 452 W/m² 19,3 km/h (3 Bft) 100,00 %
26.02.2026 11:56 16,4 °C 21,1 °C 16,1 °C 79 % 1021,4 hPa 0,0 l/m² 2 min 0 min 452 W/m² 22,5 km/h (4 Bft) 97,83 %
26.02.2026 11:58 16,3 °C 20,6 °C 16,1 °C 79 % 1021,3 hPa 0,0 l/m² 2 min 0 min 452 W/m² 19,3 km/h (3 Bft) 100,00 %
26.02.2026 12:00 16,3 °C 21,1 °C 16,1 °C 80 % 1021,2 hPa 0,0 l/m² 2 min 0 min 457 W/m² 22,5 km/h (4 Bft) 98,18 %
26.02.2026 12:02 16,4 °C 21,1 °C 16,1 °C 80 % 1021,2 hPa 0,0 l/m² 2 min 0 min 457 W/m² 22,5 km/h (4 Bft) 100,00 %
26.02.2026 12:04 16,4 °C 20,6 °C 16,1 °C 79 % 1021,2 hPa 0,0 l/m² 2 min 0 min 459 W/m² 19,3 km/h (3 Bft) 100,00 %
26.02.2026 12:07 16,4 °C 20,6 °C 16,1 °C 79 % 1021,2 hPa 0,0 l/m² 3 min 0 min 461 W/m² 19,3 km/h (3 Bft) 100,00 %
26.02.2026 12:08 16,4 °C 20,6 °C 16,1 °C 79 % 1021,2 hPa 0,0 l/m² 1 min 0 min 460 W/m² 22,5 km/h (4 Bft) 100,00 %
26.02.2026 12:12 16,4 °C 18,9 °C 15,0 °C 79 % 1021,1 hPa 0,0 l/m² 4 min 0 min 462 W/m² 22,5 km/h (4 Bft) 100,00 %
26.02.2026 12:14 16,5 °C 18,3 °C 14,4 °C 79 % 1021,2 hPa 0,0 l/m² 2 min 0 min 467 W/m² 19,3 km/h (3 Bft) 100,00 %
26.02.2026 12:16 16,5 °C 17,8 °C 13,9 °C 79 % 1021,3 hPa 0,0 l/m² 2 min 0 min 466 W/m² 25,7 km/h (4 Bft) 100,00 %
26.02.2026 12:18 16,5 °C 17,8 °C 13,9 °C 79 % 1021,1 hPa 0,0 l/m² 2 min 0 min 466 W/m² 22,5 km/h (4 Bft) 100,00 %
26.02.2026 12:20 16,5 °C 18,3 °C 13,9 °C 79 % 1021,1 hPa 0,0 l/m² 2 min 0 min 468 W/m² 25,7 km/h (4 Bft) 93,48 %
26.02.2026 12:22 16,5 °C 18,9 °C 14,4 °C 79 % 1021,1 hPa 0,0 l/m² 2 min 0 min 470 W/m² 22,5 km/h (4 Bft) 100,00 %
26.02.2026 12:24 16,5 °C 18,9 °C 14,4 °C 80 % 1021,0 hPa 0,0 l/m² 2 min 0 min 469 W/m² 25,7 km/h (4 Bft) 100,00 %
26.02.2026 12:26 16,6 °C 19,4 °C 15,0 °C 80 % 1021,0 hPa 0,0 l/m² 2 min 0 min 469 W/m² 25,7 km/h (4 Bft) 100,00 %
26.02.2026 12:28 16,6 °C 20,0 °C 15,0 °C 80 % 1020,9 hPa 0,0 l/m² 2 min 0 min 472 W/m² 19,3 km/h (3 Bft) 100,00 %
26.02.2026 12:30 16,6 °C 20,0 °C 14,4 °C 79 % 1020,9 hPa 0,0 l/m² 2 min 0 min 471 W/m² 19,3 km/h (3 Bft) 100,00 %
26.02.2026 12:32 16,6 °C 20,6 °C 15,0 °C 79 % 1020,8 hPa 0,0 l/m² 2 min 0 min 476 W/m² 16,1 km/h (3 Bft) 100,00 %
26.02.2026 12:34 16,6 °C 21,7 °C 15,0 °C 80 % 1020,7 hPa 0,0 l/m² 2 min 0 min 479 W/m² 22,5 km/h (4 Bft) 100,00 %
26.02.2026 12:36 16,7 °C 22,2 °C 15,0 °C 79 % 1020,6 hPa 0,0 l/m² 2 min 0 min 480 W/m² 19,3 km/h (3 Bft) 97,87 %
26.02.2026 12:38 16,8 °C 23,3 °C 15,0 °C 79 % 1020,6 hPa 0,0 l/m² 2 min 0 min 482 W/m² 19,3 km/h (3 Bft) 100,00 %
26.02.2026 12:40 16,9 °C 23,3 °C 15,0 °C 79 % 1020,6 hPa 0,0 l/m² 2 min 0 min 479 W/m² 16,1 km/h (3 Bft) 100,00 %
26.02.2026 12:42 17,1 °C 23,9 °C 14,4 °C 79 % 1020,5 hPa 0,0 l/m² 2 min 0 min 478 W/m² 19,3 km/h (3 Bft) 100,00 %
26.02.2026 12:44 17,2 °C 23,9 °C 14,4 °C 79 % 1020,6 hPa 0,0 l/m² 2 min 0 min 481 W/m² 22,5 km/h (4 Bft) 100,00 %
26.02.2026 12:46 17,3 °C 24,4 °C 13,9 °C 78 % 1020,5 hPa 0,0 l/m² 2 min 0 min 480 W/m² 16,1 km/h (3 Bft) 100,00 %
26.02.2026 12:48 17,3 °C 24,4 °C 13,9 °C 78 % 1020,5 hPa 0,0 l/m² 2 min 0 min 480 W/m² 22,5 km/h (4 Bft) 100,00 %
26.02.2026 12:50 17,4 °C 23,9 °C 13,9 °C 77 % 1020,4 hPa 0,0 l/m² 2 min 0 min 483 W/m² 25,7 km/h (4 Bft) 100,00 %
26.02.2026 12:52 17,5 °C 23,9 °C 13,9 °C 77 % 1020,4 hPa 0,0 l/m² 2 min 0 min 483 W/m² 19,3 km/h (3 Bft) 100,00 %
26.02.2026 12:54 17,6 °C 23,9 °C 13,9 °C 77 % 1020,3 hPa 0,0 l/m² 2 min 0 min 483 W/m² 16,1 km/h (3 Bft) 100,00 %
26.02.2026 12:56 17,7 °C 25,0 °C 13,9 °C 77 % 1020,3 hPa 0,0 l/m² 2 min 0 min 485 W/m² 16,1 km/h (3 Bft) 97,87 %
26.02.2026 12:58 17,8 °C 25,0 °C 13,9 °C 77 % 1020,3 hPa 0,0 l/m² 2 min 0 min 486 W/m² 25,7 km/h (4 Bft) 100,00 %
26.02.2026 13:00 17,8 °C 25,0 °C 13,9 °C 77 % 1020,3 hPa 0,0 l/m² 2 min 2 min 488 W/m² 12,9 km/h (3 Bft) 100,00 %
26.02.2026 13:02 17,9 °C 25,0 °C 13,9 °C 76 % 1020,3 hPa 0,0 l/m² 2 min 2 min 490 W/m² 9,7 km/h (2 Bft) 97,87 %
26.02.2026 13:04 18,1 °C 25,0 °C 13,9 °C 76 % 1020,3 hPa 0,0 l/m² 2 min 2 min 496 W/m² 19,3 km/h (3 Bft) 100,00 %
26.02.2026 13:06 18,1 °C 25,0 °C 13,9 °C 76 % 1020,3 hPa 0,0 l/m² 2 min 2 min 499 W/m² 25,7 km/h (4 Bft) 97,83 %
26.02.2026 13:08 18,2 °C 24,4 °C 13,9 °C 75 % 1020,3 hPa 0,0 l/m² 2 min 2 min 504 W/m² 22,5 km/h (4 Bft) 100,00 %
26.02.2026 13:10 18,2 °C 24,4 °C 13,9 °C 75 % 1020,2 hPa 0,0 l/m² 2 min 2 min 511 W/m² 19,3 km/h (3 Bft) 100,00 %
26.02.2026 13:12 18,2 °C 23,9 °C 13,9 °C 75 % 1020,3 hPa 0,0 l/m² 2 min 2 min 510 W/m² 25,7 km/h (4 Bft) 97,87 %
26.02.2026 13:14 18,2 °C 23,3 °C 13,9 °C 75 % 1020,2 hPa 0,0 l/m² 2 min 2 min 506 W/m² 22,5 km/h (4 Bft) 97,83 %
26.02.2026 13:16 18,2 °C 23,3 °C 13,9 °C 75 % 1020,2 hPa 0,0 l/m² 2 min 2 min 471 W/m² 19,3 km/h (3 Bft) 97,87 %
26.02.2026 13:18 18,2 °C 22,8 °C 13,9 °C 75 % 1020,2 hPa 0,0 l/m² 2 min 2 min 474 W/m² 22,5 km/h (4 Bft) 97,87 %
26.02.2026 13:20 18,1 °C 23,3 °C 13,9 °C 76 % 1020,1 hPa 0,0 l/m² 2 min 2 min 456 W/m² 12,9 km/h (3 Bft) 97,87 %
26.02.2026 13:22 18,1 °C 23,3 °C 13,9 °C 76 % 1020,1 hPa 0,0 l/m² 2 min 2 min 454 W/m² 22,5 km/h (4 Bft) 97,87 %
26.02.2026 13:24 18,1 °C 23,3 °C 13,9 °C 76 % 1020,1 hPa 0,0 l/m² 2 min 2 min 478 W/m² 29,0 km/h (5 Bft) 97,87 %
26.02.2026 13:26 18,0 °C 22,8 °C 13,3 °C 75 % 1020,0 hPa 0,0 l/m² 2 min 2 min 456 W/m² 25,7 km/h (4 Bft) 95,65 %
26.02.2026 13:28 18,0 °C 22,8 °C 13,9 °C 76 % 1020,0 hPa 0,0 l/m² 2 min 2 min 411 W/m² 22,5 km/h (4 Bft) 95,74 %
26.02.2026 13:30 18,1 °C 22,2 °C 13,9 °C 76 % 1020,0 hPa 0,0 l/m² 2 min 2 min 415 W/m² 19,3 km/h (3 Bft) 95,74 %
26.02.2026 13:32 18,1 °C 22,8 °C 13,3 °C 75 % 1020,0 hPa 0,0 l/m² 2 min 2 min 423 W/m² 19,3 km/h (3 Bft) 95,74 %
26.02.2026 13:34 18,1 °C 22,2 °C 13,9 °C 76 % 1019,9 hPa 0,0 l/m² 2 min 2 min 398 W/m² 16,1 km/h (3 Bft) 93,62 %
26.02.2026 13:36 18,2 °C 22,2 °C 13,9 °C 76 % 1019,9 hPa 0,0 l/m² 2 min 2 min 387 W/m² 19,3 km/h (3 Bft) 95,74 %
26.02.2026 13:38 18,2 °C 22,2 °C 13,3 °C 76 % 1020,0 hPa 0,0 l/m² 2 min 2 min 371 W/m² 22,5 km/h (4 Bft) 93,48 %
26.02.2026 13:40 18,2 °C 21,7 °C 13,9 °C 75 % 1020,0 hPa 0,0 l/m² 2 min 2 min 357 W/m² 19,3 km/h (3 Bft) 95,74 %
26.02.2026 13:42 18,2 °C 22,2 °C 13,9 °C 75 % 1020,0 hPa 0,0 l/m² 2 min 2 min 371 W/m² 19,3 km/h (3 Bft) 93,62 %
26.02.2026 13:44 18,3 °C 21,7 °C 13,3 °C 75 % 1020,1 hPa 0,0 l/m² 2 min 2 min 359 W/m² 19,3 km/h (3 Bft) 95,74 %
26.02.2026 13:46 18,3 °C 21,1 °C 13,3 °C 75 % 1020,1 hPa 0,0 l/m² 2 min 2 min 323 W/m² 22,5 km/h (4 Bft) 97,87 %
26.02.2026 13:48 18,3 °C 21,1 °C 13,3 °C 75 % 1020,1 hPa 0,0 l/m² 2 min 2 min 393 W/m² 16,1 km/h (3 Bft) 93,62 %
26.02.2026 13:50 18,3 °C 21,7 °C 13,3 °C 75 % 1020,1 hPa 0,0 l/m² 2 min 2 min 336 W/m² 12,9 km/h (3 Bft) 97,83 %
26.02.2026 13:52 18,3 °C 21,7 °C 13,3 °C 75 % 1020,1 hPa 0,0 l/m² 2 min 2 min 379 W/m² 16,1 km/h (3 Bft) 97,87 %
26.02.2026 13:54 18,3 °C 21,7 °C 13,3 °C 75 % 1020,1 hPa 0,0 l/m² 2 min 2 min 364 W/m² 22,5 km/h (4 Bft) 95,74 %
26.02.2026 13:56 18,4 °C 22,2 °C 13,3 °C 75 % 1020,1 hPa 0,0 l/m² 2 min 2 min 401 W/m² 22,5 km/h (4 Bft) 93,62 %
26.02.2026 13:58 18,4 °C 22,8 °C 13,9 °C 75 % 1020,0 hPa 0,0 l/m² 2 min 2 min 417 W/m² 25,7 km/h (4 Bft) 91,49 %
26.02.2026 14:00 18,4 °C 22,8 °C 13,9 °C 75 % 1020,0 hPa 0,0 l/m² 2 min 2 min 415 W/m² 19,3 km/h (3 Bft) 95,74 %
26.02.2026 14:02 18,4 °C 22,2 °C 13,9 °C 75 % 1020,0 hPa 0,0 l/m² 2 min 2 min 396 W/m² 19,3 km/h (3 Bft) 95,65 %
26.02.2026 14:04 18,5 °C 22,8 °C 13,9 °C 75 % 1020,0 hPa 0,0 l/m² 2 min 2 min 424 W/m² 19,3 km/h (3 Bft) 95,74 %
26.02.2026 14:06 18,6 °C 22,8 °C 13,9 °C 75 % 1020,0 hPa 0,0 l/m² 2 min 2 min 431 W/m² 32,2 km/h (5 Bft) 96,61 %
26.02.2026 14:08 18,6 °C 21,7 °C 13,9 °C 74 % 1019,9 hPa 0,0 l/m² 2 min 2 min 347 W/m² 29,0 km/h (5 Bft) 95,74 %
26.02.2026 14:10 18,6 °C 21,7 °C 13,9 °C 74 % 1019,9 hPa 0,0 l/m² 2 min 2 min 397 W/m² 22,5 km/h (4 Bft) 94,29 %
26.02.2026 14:12 18,6 °C 22,8 °C 13,9 °C 74 % 1019,9 hPa 0,0 l/m² 2 min 2 min 429 W/m² 16,1 km/h (3 Bft) 95,65 %
26.02.2026 14:14 18,7 °C 23,9 °C 13,9 °C 74 % 1019,8 hPa 0,0 l/m² 2 min 2 min 451 W/m² 12,9 km/h (3 Bft) 95,74 %
26.02.2026 14:16 18,8 °C 23,9 °C 13,9 °C 74 % 1019,8 hPa 0,0 l/m² 2 min 2 min 452 W/m² 16,1 km/h (3 Bft) 95,74 %
26.02.2026 14:18 18,9 °C 22,8 °C 13,9 °C 73 % 1019,8 hPa 0,0 l/m² 2 min 2 min 450 W/m² 25,7 km/h (4 Bft) 95,74 %
26.02.2026 14:20 18,9 °C 23,3 °C 13,9 °C 73 % 1019,8 hPa 0,0 l/m² 2 min 2 min 448 W/m² 22,5 km/h (4 Bft) 97,87 %
26.02.2026 14:22 19,1 °C 23,3 °C 13,9 °C 73 % 1019,8 hPa 0,0 l/m² 2 min 2 min 437 W/m² 16,1 km/h (3 Bft) 97,87 %
26.02.2026 14:24 19,1 °C 23,3 °C 13,9 °C 72 % 1019,7 hPa 0,0 l/m² 2 min 2 min 431 W/m² 19,3 km/h (3 Bft) 95,74 %
26.02.2026 14:26 19,1 °C 23,3 °C 13,9 °C 72 % 1019,8 hPa 0,0 l/m² 2 min 2 min 314 W/m² 19,3 km/h (3 Bft) 95,65 %
26.02.2026 14:28 19,2 °C 22,8 °C 13,9 °C 72 % 1019,7 hPa 0,0 l/m² 2 min 2 min 416 W/m² 16,1 km/h (3 Bft) 97,87 %
26.02.2026 14:30 19,2 °C 22,8 °C 13,9 °C 72 % 1019,6 hPa 0,0 l/m² 2 min 2 min 407 W/m² 22,5 km/h (4 Bft) 97,87 %
26.02.2026 14:32 19,2 °C 22,8 °C 13,9 °C 71 % 1019,7 hPa 0,0 l/m² 2 min 2 min 402 W/m² 22,5 km/h (4 Bft) 97,87 %
26.02.2026 14:34 19,2 °C 22,8 °C 13,9 °C 72 % 1019,7 hPa 0,0 l/m² 2 min 2 min 423 W/m² 22,5 km/h (4 Bft) 95,74 %
26.02.2026 14:36 19,2 °C 22,8 °C 13,9 °C 71 % 1019,7 hPa 0,0 l/m² 2 min 2 min 416 W/m² 19,3 km/h (3 Bft) 95,65 %
26.02.2026 14:38 19,3 °C 23,3 °C 13,9 °C 72 % 1019,6 hPa 0,0 l/m² 2 min 2 min 398 W/m² 16,1 km/h (3 Bft) 97,87 %
26.02.2026 14:40 19,3 °C 23,9 °C 13,9 °C 71 % 1019,6 hPa 0,0 l/m² 2 min 2 min 382 W/m² 22,5 km/h (4 Bft) 95,74 %
26.02.2026 14:42 19,3 °C 22,8 °C 13,9 °C 71 % 1019,5 hPa 0,0 l/m² 2 min 2 min 382 W/m² 25,7 km/h (4 Bft) 95,74 %
26.02.2026 14:44 19,4 °C 23,3 °C 13,9 °C 71 % 1019,5 hPa 0,0 l/m² 2 min 2 min 373 W/m² 25,7 km/h (4 Bft) 97,87 %
26.02.2026 14:46 19,4 °C 23,3 °C 13,9 °C 71 % 1019,4 hPa 0,0 l/m² 2 min 2 min 373 W/m² 22,5 km/h (4 Bft) 97,87 %
26.02.2026 14:48 19,4 °C 23,3 °C 13,9 °C 71 % 1019,4 hPa 0,0 l/m² 2 min 2 min 378 W/m² 16,1 km/h (3 Bft) 97,83 %
26.02.2026 14:50 19,5 °C 23,9 °C 14,4 °C 72 % 1019,4 hPa 0,0 l/m² 2 min 2 min 377 W/m² 12,9 km/h (3 Bft) 97,87 %
26.02.2026 14:52 19,6 °C 23,3 °C 14,4 °C 71 % 1019,4 hPa 0,0 l/m² 2 min 2 min 369 W/m² 16,1 km/h (3 Bft) 97,87 %
26.02.2026 14:54 19,6 °C 23,3 °C 13,9 °C 71 % 1019,4 hPa 0,0 l/m² 2 min 2 min 372 W/m² 22,5 km/h (4 Bft) 97,87 %
26.02.2026 14:56 19,5 °C 23,3 °C 13,9 °C 71 % 1019,4 hPa 0,0 l/m² 2 min 2 min 373 W/m² 25,7 km/h (4 Bft) 100,00 %
26.02.2026 14:58 19,5 °C 22,8 °C 13,9 °C 70 % 1019,4 hPa 0,0 l/m² 2 min 2 min 376 W/m² 32,2 km/h (5 Bft) 100,00 %
26.02.2026 15:00 19,4 °C 22,8 °C 13,9 °C 71 % 1019,5 hPa 0,0 l/m² 2 min 2 min 371 W/m² 32,2 km/h (5 Bft) 100,00 %
26.02.2026 15:02 19,4 °C 22,8 °C 13,9 °C 71 % 1019,4 hPa 0,0 l/m² 2 min 2 min 363 W/m² 19,3 km/h (3 Bft) 100,00 %
26.02.2026 15:04 19,4 °C 22,8 °C 13,9 °C 71 % 1019,3 hPa 0,0 l/m² 2 min 2 min 357 W/m² 6,4 km/h (2 Bft) 100,00 %
26.02.2026 15:06 19,5 °C 23,3 °C 13,9 °C 72 % 1019,4 hPa 0,0 l/m² 2 min 2 min 359 W/m² 9,7 km/h (2 Bft) 100,00 %
26.02.2026 15:08 19,6 °C 23,9 °C 14,4 °C 72 % 1019,4 hPa 0,0 l/m² 2 min 2 min 356 W/m² 16,1 km/h (3 Bft) 97,67 %
26.02.2026 15:10 19,6 °C 23,9 °C 14,4 °C 71 % 1019,5 hPa 0,0 l/m² 2 min 2 min 354 W/m² 12,9 km/h (3 Bft) 97,87 %
26.02.2026 15:12 19,6 °C 23,9 °C 13,9 °C 71 % 1019,4 hPa 0,0 l/m² 2 min 2 min 353 W/m² 19,3 km/h (3 Bft) 100,00 %
26.02.2026 15:14 19,6 °C 23,3 °C 13,9 °C 70 % 1019,5 hPa 0,0 l/m² 2 min 2 min 350 W/m² 22,5 km/h (4 Bft) 100,00 %
26.02.2026 15:16 19,6 °C 22,8 °C 14,4 °C 70 % 1019,5 hPa 0,0 l/m² 2 min 2 min 344 W/m² 19,3 km/h (3 Bft) 100,00 %
26.02.2026 15:18 19,6 °C 22,2 °C 14,4 °C 70 % 1019,4 hPa 0,0 l/m² 2 min 2 min 338 W/m² 22,5 km/h (4 Bft) 100,00 %
26.02.2026 15:20 19,6 °C 22,8 °C 14,4 °C 70 % 1019,4 hPa 0,0 l/m² 2 min 2 min 333 W/m² 22,5 km/h (4 Bft) 100,00 %
26.02.2026 15:22 19,6 °C 22,8 °C 14,4 °C 71 % 1019,5 hPa 0,0 l/m² 2 min 2 min 330 W/m² 16,1 km/h (3 Bft) 97,83 %
26.02.2026 15:24 19,7 °C 23,3 °C 14,4 °C 71 % 1019,5 hPa 0,0 l/m² 2 min 2 min 328 W/m² 16,1 km/h (3 Bft) 97,87 %
26.02.2026 15:26 19,7 °C 22,8 °C 14,4 °C 70 % 1019,5 hPa 0,0 l/m² 2 min 2 min 323 W/m² 19,3 km/h (3 Bft) 97,87 %
26.02.2026 15:28 19,7 °C 22,8 °C 14,4 °C 70 % 1019,5 hPa 0,0 l/m² 2 min 2 min 321 W/m² 16,1 km/h (3 Bft) 97,87 %
26.02.2026 15:30 19,7 °C 22,8 °C 14,4 °C 70 % 1019,4 hPa 0,0 l/m² 2 min 2 min 316 W/m² 19,3 km/h (3 Bft) 97,87 %
26.02.2026 15:32 19,6 °C 22,2 °C 13,9 °C 69 % 1019,4 hPa 0,0 l/m² 2 min 2 min 314 W/m² 22,5 km/h (4 Bft) 97,87 %
26.02.2026 15:34 19,6 °C 22,2 °C 13,9 °C 69 % 1019,5 hPa 0,0 l/m² 2 min 2 min 309 W/m² 25,7 km/h (4 Bft) 97,83 %
26.02.2026 15:36 19,5 °C 21,7 °C 13,9 °C 69 % 1019,5 hPa 0,0 l/m² 2 min 2 min 294 W/m² 29,0 km/h (5 Bft) 95,74 %
26.02.2026 15:38 19,4 °C 21,7 °C 13,9 °C 70 % 1019,5 hPa 0,0 l/m² 2 min 2 min 287 W/m² 35,4 km/h (5 Bft) 97,87 %
26.02.2026 15:40 19,4 °C 21,7 °C 13,9 °C 69 % 1019,6 hPa 0,0 l/m² 2 min 2 min 280 W/m² 22,5 km/h (4 Bft) 97,87 %
26.02.2026 15:42 19,4 °C 21,7 °C 13,9 °C 70 % 1019,6 hPa 0,0 l/m² 2 min 2 min 279 W/m² 12,9 km/h (3 Bft) 95,74 %
26.02.2026 15:44 19,4 °C 22,2 °C 13,9 °C 70 % 1019,6 hPa 0,0 l/m² 2 min 2 min 287 W/m² 19,3 km/h (3 Bft) 97,87 %
26.02.2026 15:46 19,4 °C 22,2 °C 13,9 °C 70 % 1019,7 hPa 0,0 l/m² 2 min 2 min 284 W/m² 12,9 km/h (3 Bft) 97,83 %
26.02.2026 15:48 19,4 °C 22,2 °C 13,9 °C 69 % 1019,7 hPa 0,0 l/m² 2 min 2 min 279 W/m² 22,5 km/h (4 Bft) 95,74 %
26.02.2026 15:50 19,4 °C 22,2 °C 13,9 °C 69 % 1019,7 hPa 0,0 l/m² 2 min 2 min 273 W/m² 12,9 km/h (3 Bft) 95,74 %
26.02.2026 15:52 19,4 °C 21,7 °C 13,9 °C 69 % 1019,7 hPa 0,0 l/m² 2 min 2 min 267 W/m² 22,5 km/h (4 Bft) 97,87 %
26.02.2026 15:54 19,3 °C 21,1 °C 13,9 °C 69 % 1019,7 hPa 0,0 l/m² 2 min 2 min 264 W/m² 25,7 km/h (4 Bft) 95,74 %
26.02.2026 15:56 19,3 °C 21,1 °C 13,9 °C 69 % 1019,7 hPa 0,0 l/m² 2 min 2 min 259 W/m² 22,5 km/h (4 Bft) 97,87 %
26.02.2026 15:58 19,3 °C 21,1 °C 13,9 °C 69 % 1019,7 hPa 0,0 l/m² 2 min 2 min 255 W/m² 19,3 km/h (3 Bft) 97,83 %
26.02.2026 16:00 19,3 °C 21,1 °C 13,9 °C 69 % 1019,7 hPa 0,0 l/m² 2 min 2 min 250 W/m² 16,1 km/h (3 Bft) 97,87 %
26.02.2026 16:02 19,2 °C 20,6 °C 13,3 °C 69 % 1019,8 hPa 0,0 l/m² 2 min 2 min 243 W/m² 19,3 km/h (3 Bft) 100,00 %
26.02.2026 16:04 19,2 °C 20,0 °C 13,3 °C 70 % 1019,7 hPa 0,0 l/m² 2 min 2 min 238 W/m² 16,1 km/h (3 Bft) 97,56 %
26.02.2026 16:06 19,2 °C 19,4 °C 13,3 °C 70 % 1019,7 hPa 0,0 l/m² 2 min 2 min 235 W/m² 19,3 km/h (3 Bft) 100,00 %
26.02.2026 16:08 19,2 °C 19,4 °C 13,3 °C 70 % 1019,7 hPa 0,0 l/m² 2 min 2 min 231 W/m² 12,9 km/h (3 Bft) 100,00 %
26.02.2026 16:10 19,1 °C 18,9 °C 13,3 °C 70 % 1019,7 hPa 0,0 l/m² 2 min 2 min 225 W/m² 25,7 km/h (4 Bft) 95,92 %
26.02.2026 16:12 19,1 °C 18,9 °C 13,3 °C 70 % 1019,6 hPa 0,0 l/m² 2 min 2 min 219 W/m² 19,3 km/h (3 Bft) 97,87 %
26.02.2026 16:14 19,1 °C 18,3 °C 13,3 °C 70 % 1019,6 hPa 0,0 l/m² 2 min 2 min 213 W/m² 25,7 km/h (4 Bft) 95,74 %
26.02.2026 16:16 19,0 °C 18,3 °C 13,3 °C 70 % 1019,6 hPa 0,0 l/m² 2 min 2 min 208 W/m² 16,1 km/h (3 Bft) 97,87 %
26.02.2026 16:18 18,9 °C 18,3 °C 13,3 °C 70 % 1019,5 hPa 0,0 l/m² 2 min 2 min 201 W/m² 12,9 km/h (3 Bft) 97,87 %
26.02.2026 16:20 18,9 °C 18,3 °C 13,3 °C 70 % 1019,5 hPa 0,0 l/m² 2 min 2 min 196 W/m² 12,9 km/h (3 Bft) 97,83 %
26.02.2026 16:22 18,9 °C 18,3 °C 13,3 °C 71 % 1019,5 hPa 0,0 l/m² 2 min 2 min 190 W/m² 12,9 km/h (3 Bft) 97,87 %
26.02.2026 16:24 18,9 °C 18,3 °C 13,3 °C 71 % 1019,6 hPa 0,0 l/m² 2 min 2 min 184 W/m² 12,9 km/h (3 Bft) 97,87 %
26.02.2026 16:26 18,8 °C 18,3 °C 13,3 °C 71 % 1019,5 hPa 0,0 l/m² 2 min 2 min 177 W/m² 12,9 km/h (3 Bft) 97,87 %
26.02.2026 16:28 18,8 °C 18,3 °C 13,3 °C 70 % 1019,5 hPa 0,0 l/m² 2 min 2 min 172 W/m² 16,1 km/h (3 Bft) 97,87 %
26.02.2026 16:30 18,8 °C 18,3 °C 13,3 °C 71 % 1019,5 hPa 0,0 l/m² 2 min 2 min 155 W/m² 16,1 km/h (3 Bft) 95,74 %
26.02.2026 16:32 18,7 °C 18,3 °C 13,3 °C 71 % 1019,5 hPa 0,0 l/m² 2 min 2 min 125 W/m² 12,9 km/h (3 Bft) 97,83 %
26.02.2026 16:34 18,7 °C 17,8 °C 13,3 °C 71 % 1019,4 hPa 0,0 l/m² 2 min 2 min 149 W/m² 12,9 km/h (3 Bft) 95,74 %
26.02.2026 16:36 18,7 °C 17,8 °C 13,3 °C 70 % 1019,4 hPa 0,0 l/m² 2 min 2 min 144 W/m² 22,5 km/h (4 Bft) 97,87 %
26.02.2026 16:38 18,6 °C 17,8 °C 13,3 °C 70 % 1019,4 hPa 0,0 l/m² 0 min 2 min 92 W/m² 29,0 km/h (5 Bft) 97,87 %
26.02.2026 16:40 18,6 °C 17,8 °C 13,3 °C 70 % 1019,4 hPa 0,0 l/m² 0 min 2 min 62 W/m² 25,7 km/h (4 Bft) 97,87 %
26.02.2026 16:42 18,6 °C 17,8 °C 13,3 °C 70 % 1019,4 hPa 0,0 l/m² 0 min 2 min 58 W/m² 22,5 km/h (4 Bft) 97,87 %
26.02.2026 16:44 18,5 °C 17,8 °C 13,3 °C 70 % 1019,3 hPa 0,0 l/m² 0 min 2 min 58 W/m² 25,7 km/h (4 Bft) 97,83 %
26.02.2026 16:46 18,5 °C 17,8 °C 13,3 °C 70 % 1019,4 hPa 0,0 l/m² 0 min 2 min 56 W/m² 19,3 km/h (3 Bft) 97,87 %
26.02.2026 16:48 18,4 °C 17,8 °C 13,3 °C 70 % 1019,3 hPa 0,0 l/m² 0 min 2 min 55 W/m² 32,2 km/h (5 Bft) 93,62 %
26.02.2026 16:50 18,4 °C 17,8 °C 13,3 °C 69 % 1019,3 hPa 0,0 l/m² 0 min 2 min 54 W/m² 25,7 km/h (4 Bft) 97,87 %
26.02.2026 16:52 18,3 °C 17,8 °C 13,3 °C 69 % 1019,3 hPa 0,0 l/m² 0 min 2 min 53 W/m² 19,3 km/h (3 Bft) 95,74 %
26.02.2026 16:54 18,3 °C 17,8 °C 12,8 °C 69 % 1019,2 hPa 0,0 l/m² 0 min 2 min 51 W/m² 12,9 km/h (3 Bft) 100,00 %
26.02.2026 16:56 18,3 °C 17,8 °C 12,8 °C 69 % 1019,3 hPa 0,0 l/m² 0 min 2 min 50 W/m² 16,1 km/h (3 Bft) 100,00 %
26.02.2026 16:58 18,3 °C 17,8 °C 12,8 °C 69 % 1019,2 hPa 0,0 l/m² 0 min 2 min 49 W/m² 12,9 km/h (3 Bft) 100,00 %
26.02.2026 17:00 18,2 °C 17,2 °C 12,8 °C 70 % 1019,2 hPa 0,0 l/m² 0 min 2 min 48 W/m² 12,9 km/h (3 Bft) 100,00 %
26.02.2026 17:02 18,2 °C 17,2 °C 12,8 °C 70 % 1019,2 hPa 0,0 l/m² 0 min 2 min 46 W/m² 22,5 km/h (4 Bft) 97,87 %
26.02.2026 17:04 18,2 °C 17,2 °C 12,8 °C 70 % 1019,2 hPa 0,0 l/m² 0 min 2 min 46 W/m² 16,1 km/h (3 Bft) 100,00 %
26.02.2026 17:06 18,2 °C 17,2 °C 12,8 °C 71 % 1019,2 hPa 0,0 l/m² 0 min 2 min 46 W/m² 9,7 km/h (2 Bft) 95,74 %
26.02.2026 17:08 18,1 °C 17,2 °C 12,8 °C 70 % 1019,1 hPa 0,0 l/m² 0 min 2 min 45 W/m² 22,5 km/h (4 Bft) 97,92 %
26.02.2026 17:10 18,1 °C 17,2 °C 12,8 °C 70 % 1019,1 hPa 0,0 l/m² 0 min 2 min 44 W/m² 19,3 km/h (3 Bft) 97,87 %
26.02.2026 17:12 18,1 °C 17,2 °C 12,8 °C 71 % 1019,1 hPa 0,0 l/m² 0 min 2 min 43 W/m² 6,4 km/h (2 Bft) 97,87 %
26.02.2026 17:14 18,1 °C 17,2 °C 12,8 °C 71 % 1019,1 hPa 0,0 l/m² 0 min 2 min 42 W/m² 12,9 km/h (3 Bft) 97,87 %
26.02.2026 17:16 18,0 °C 17,2 °C 12,8 °C 71 % 1019,2 hPa 0,0 l/m² 0 min 2 min 41 W/m² 12,9 km/h (3 Bft) 97,87 %
26.02.2026 17:18 18,0 °C 17,2 °C 12,8 °C 71 % 1019,2 hPa 0,0 l/m² 0 min 2 min 39 W/m² 12,9 km/h (3 Bft) 97,83 %
26.02.2026 17:20 17,9 °C 16,7 °C 12,2 °C 71 % 1019,1 hPa 0,0 l/m² 0 min 2 min 38 W/m² 6,4 km/h (2 Bft) 97,87 %
26.02.2026 17:22 17,9 °C 16,7 °C 12,2 °C 70 % 1019,1 hPa 0,0 l/m² 0 min 2 min 35 W/m² 12,9 km/h (3 Bft) 95,74 %
26.02.2026 17:24 17,9 °C 16,7 °C 12,2 °C 70 % 1019,1 hPa 0,0 l/m² 0 min 2 min 33 W/m² 12,9 km/h (3 Bft) 95,74 %
26.02.2026 17:26 17,8 °C 16,7 °C 12,2 °C 70 % 1019,1 hPa 0,0 l/m² 0 min 2 min 32 W/m² 19,3 km/h (3 Bft) 97,87 %
26.02.2026 17:28 17,8 °C 16,7 °C 12,2 °C 70 % 1019,2 hPa 0,0 l/m² 0 min 2 min 30 W/m² 16,1 km/h (3 Bft) 97,87 %
26.02.2026 17:30 17,8 °C 16,7 °C 12,2 °C 71 % 1019,1 hPa 0,0 l/m² 0 min 2 min 28 W/m² 16,1 km/h (3 Bft) 97,83 %
26.02.2026 17:32 17,7 °C 16,7 °C 12,2 °C 71 % 1019,2 hPa 0,0 l/m² 0 min 2 min 27 W/m² 16,1 km/h (3 Bft) 97,87 %
26.02.2026 17:34 17,7 °C 16,7 °C 12,2 °C 71 % 1019,2 hPa 0,0 l/m² 0 min 2 min 26 W/m² 16,1 km/h (3 Bft) 97,87 %
26.02.2026 17:36 17,7 °C 16,7 °C 12,2 °C 70 % 1019,2 hPa 0,0 l/m² 0 min 2 min 24 W/m² 25,7 km/h (4 Bft) 93,62 %
26.02.2026 17:38 17,6 °C 16,7 °C 12,2 °C 70 % 1019,1 hPa 0,0 l/m² 0 min 2 min 21 W/m² 16,1 km/h (3 Bft) 95,74 %
26.02.2026 17:40 17,6 °C 16,7 °C 12,2 °C 70 % 1019,1 hPa 0,0 l/m² 0 min 2 min 21 W/m² 19,3 km/h (3 Bft) 93,62 %
26.02.2026 17:42 17,6 °C 16,7 °C 12,2 °C 70 % 1019,0 hPa 0,0 l/m² 0 min 2 min 19 W/m² 19,3 km/h (3 Bft) 93,48 %
26.02.2026 17:44 17,6 °C 16,7 °C 12,2 °C 71 % 1019,0 hPa 0,0 l/m² 0 min 2 min 18 W/m² 19,3 km/h (3 Bft) 95,74 %
26.02.2026 17:46 17,5 °C 16,7 °C 12,2 °C 71 % 1019,0 hPa 0,0 l/m² 0 min 2 min 16 W/m² 19,3 km/h (3 Bft) 97,87 %
26.02.2026 17:48 17,5 °C 16,7 °C 12,2 °C 70 % 1019,0 hPa 0,0 l/m² 0 min 2 min 15 W/m² 16,1 km/h (3 Bft) 95,74 %
26.02.2026 17:50 17,4 °C 16,1 °C 12,2 °C 70 % 1019,0 hPa 0,0 l/m² 0 min 2 min 14 W/m² 16,1 km/h (3 Bft) 97,87 %
26.02.2026 17:52 17,4 °C 16,1 °C 12,2 °C 70 % 1019,1 hPa 0,0 l/m² 0 min 2 min 14 W/m² 19,3 km/h (3 Bft) 97,83 %
26.02.2026 17:54 17,4 °C 16,1 °C 12,2 °C 70 % 1019,0 hPa 0,0 l/m² 0 min 2 min 14 W/m² 22,5 km/h (4 Bft) 97,87 %
26.02.2026 17:56 17,4 °C 16,1 °C 12,2 °C 70 % 1019,0 hPa 0,0 l/m² 0 min 2 min 12 W/m² 22,5 km/h (4 Bft) 97,87 %
26.02.2026 17:58 17,3 °C 16,1 °C 12,2 °C 70 % 1019,0 hPa 0,0 l/m² 0 min 2 min 11 W/m² 19,3 km/h (3 Bft) 97,87 %
26.02.2026 18:00 17,3 °C 16,1 °C 12,2 °C 70 % 1019,1 hPa 0,0 l/m² 0 min 2 min 11 W/m² 25,7 km/h (4 Bft) 95,74 %
26.02.2026 18:02 17,3 °C 16,1 °C 12,2 °C 70 % 1019,1 hPa 0,0 l/m² 0 min 2 min 9 W/m² 25,7 km/h (4 Bft) 97,87 %
26.02.2026 18:04 17,3 °C 16,1 °C 12,2 °C 70 % 1019,1 hPa 0,0 l/m² 0 min 2 min 9 W/m² 16,1 km/h (3 Bft) 95,65 %
26.02.2026 18:07 17,2 °C 16,1 °C 11,7 °C 70 % 1019,1 hPa 0,0 l/m² 0 min 3 min 7 W/m² 16,1 km/h (3 Bft) 95,65 %
26.02.2026 18:08 17,2 °C 16,1 °C 11,7 °C 70 % 1019,1 hPa 0,0 l/m² 0 min 1 min 7 W/m² 16,1 km/h (3 Bft) 96,43 %
26.02.2026 18:10 17,2 °C 16,1 °C 11,7 °C 70 % 1019,1 hPa 0,0 l/m² 0 min 2 min 4 W/m² 16,1 km/h (3 Bft) 100,00 %
26.02.2026 18:12 17,2 °C 16,1 °C 11,7 °C 70 % 1019,1 hPa 0,0 l/m² 0 min 2 min 0 W/m² 22,5 km/h (4 Bft) 100,00 %
26.02.2026 18:14 17,1 °C 16,1 °C 11,7 °C 70 % 1019,1 hPa 0,0 l/m² 0 min 2 min 0 W/m² 19,3 km/h (3 Bft) 100,00 %
26.02.2026 18:16 17,1 °C 16,1 °C 11,7 °C 70 % 1019,1 hPa 0,0 l/m² 0 min 2 min 0 W/m² 16,1 km/h (3 Bft) 100,00 %
26.02.2026 18:18 17,1 °C 16,1 °C 11,7 °C 70 % 1019,2 hPa 0,0 l/m² 0 min 2 min 0 W/m² 25,7 km/h (4 Bft) 97,83 %
26.02.2026 18:20 17,1 °C 15,6 °C 11,7 °C 70 % 1019,2 hPa 0,0 l/m² 0 min 2 min 0 W/m² 16,1 km/h (3 Bft) 100,00 %
26.02.2026 18:22 17,0 °C 15,6 °C 11,7 °C 70 % 1019,1 hPa 0,0 l/m² 0 min 2 min 0 W/m² 16,1 km/h (3 Bft) 100,00 %
26.02.2026 18:24 16,9 °C 15,6 °C 11,7 °C 70 % 1019,1 hPa 0,0 l/m² 0 min 2 min 0 W/m² 16,1 km/h (3 Bft) 97,87 %
26.02.2026 18:26 16,9 °C 15,6 °C 11,7 °C 70 % 1019,1 hPa 0,0 l/m² 0 min 2 min 0 W/m² 12,9 km/h (3 Bft) 100,00 %
26.02.2026 18:28 16,9 °C 15,6 °C 11,7 °C 70 % 1019,2 hPa 0,0 l/m² 0 min 2 min 0 W/m² 19,3 km/h (3 Bft) 100,00 %
26.02.2026 18:30 16,8 °C 15,6 °C 11,1 °C 71 % 1019,2 hPa 0,0 l/m² 0 min 2 min 0 W/m² 16,1 km/h (3 Bft) 100,00 %
26.02.2026 18:32 16,8 °C 15,6 °C 11,1 °C 71 % 1019,2 hPa 0,0 l/m² 0 min 2 min 0 W/m² 12,9 km/h (3 Bft) 100,00 %
26.02.2026 18:34 16,7 °C 15,6 °C 11,1 °C 71 % 1019,2 hPa 0,0 l/m² 0 min 2 min 0 W/m² 12,9 km/h (3 Bft) 100,00 %
26.02.2026 18:36 16,7 °C 15,6 °C 11,1 °C 71 % 1019,3 hPa 0,0 l/m² 0 min 2 min 0 W/m² 9,7 km/h (2 Bft) 97,87 %
26.02.2026 18:38 16,7 °C 15,6 °C 11,1 °C 71 % 1019,2 hPa 0,0 l/m² 0 min 2 min 0 W/m² 12,9 km/h (3 Bft) 100,00 %
26.02.2026 18:40 16,6 °C 15,0 °C 11,1 °C 71 % 1019,3 hPa 0,0 l/m² 0 min 2 min 0 W/m² 12,9 km/h (3 Bft) 97,87 %
26.02.2026 18:42 16,6 °C 15,0 °C 11,1 °C 72 % 1019,2 hPa 0,0 l/m² 0 min 2 min 0 W/m² 9,7 km/h (2 Bft) 100,00 %
26.02.2026 18:44 16,5 °C 15,0 °C 11,1 °C 72 % 1019,3 hPa 0,0 l/m² 0 min 2 min 0 W/m² 6,4 km/h (2 Bft) 100,00 %
26.02.2026 18:46 16,4 °C 15,0 °C 10,6 °C 72 % 1019,3 hPa 0,0 l/m² 0 min 2 min 0 W/m² 9,7 km/h (2 Bft) 100,00 %
26.02.2026 18:48 16,4 °C 15,0 °C 10,6 °C 72 % 1019,3 hPa 0,0 l/m² 0 min 2 min 0 W/m² 9,7 km/h (2 Bft) 97,87 %
26.02.2026 18:50 16,3 °C 15,0 °C 10,6 °C 72 % 1019,3 hPa 0,0 l/m² 0 min 2 min 0 W/m² 16,1 km/h (3 Bft) 100,00 %
26.02.2026 18:52 16,3 °C 15,0 °C 10,6 °C 73 % 1019,3 hPa 0,0 l/m² 0 min 2 min 0 W/m² 12,9 km/h (3 Bft) 95,74 %
26.02.2026 18:54 16,2 °C 15,0 °C 10,6 °C 73 % 1019,4 hPa 0,0 l/m² 0 min 2 min 0 W/m² 9,7 km/h (2 Bft) 97,83 %
26.02.2026 18:56 16,2 °C 15,0 °C 10,6 °C 73 % 1019,4 hPa 0,0 l/m² 0 min 2 min 0 W/m² 9,7 km/h (2 Bft) 97,87 %
26.02.2026 18:58 16,2 °C 14,4 °C 10,6 °C 73 % 1019,4 hPa 0,0 l/m² 0 min 2 min 0 W/m² 6,4 km/h (2 Bft) 97,87 %
26.02.2026 19:00 16,1 °C 14,4 °C 10,6 °C 73 % 1019,4 hPa 0,0 l/m² 0 min 2 min 0 W/m² 12,9 km/h (3 Bft) 97,87 %
26.02.2026 19:02 16,1 °C 14,4 °C 10,6 °C 73 % 1019,4 hPa 0,0 l/m² 0 min 2 min 0 W/m² 9,7 km/h (2 Bft) 97,87 %
26.02.2026 19:04 16,0 °C 14,4 °C 10,6 °C 73 % 1019,4 hPa 0,0 l/m² 0 min 2 min 0 W/m² 12,9 km/h (3 Bft) 97,87 %
26.02.2026 19:06 15,9 °C 14,4 °C 10,6 °C 74 % 1019,5 hPa 0,0 l/m² 0 min 2 min 0 W/m² 6,4 km/h (2 Bft) 96,55 %
26.02.2026 19:08 15,9 °C 14,4 °C 10,6 °C 74 % 1019,5 hPa 0,0 l/m² 0 min 2 min 0 W/m² 6,4 km/h (2 Bft) 97,22 %
26.02.2026 19:10 15,8 °C 14,4 °C 10,6 °C 74 % 1019,5 hPa 0,0 l/m² 0 min 2 min 0 W/m² 6,4 km/h (2 Bft) 95,65 %
26.02.2026 19:12 15,8 °C 14,4 °C 10,6 °C 74 % 1019,5 hPa 0,0 l/m² 0 min 2 min 0 W/m² 12,9 km/h (3 Bft) 97,87 %
26.02.2026 19:14 15,8 °C 14,4 °C 10,6 °C 74 % 1019,5 hPa 0,0 l/m² 0 min 2 min 0 W/m² 9,7 km/h (2 Bft) 97,87 %
26.02.2026 19:16 15,7 °C 14,4 °C 10,6 °C 74 % 1019,6 hPa 0,0 l/m² 0 min 2 min 0 W/m² 6,4 km/h (2 Bft) 97,87 %
26.02.2026 19:18 15,7 °C 14,4 °C 10,0 °C 74 % 1019,5 hPa 0,0 l/m² 0 min 2 min 0 W/m² 9,7 km/h (2 Bft) 97,83 %
26.02.2026 19:20 15,6 °C 14,4 °C 10,0 °C 74 % 1019,5 hPa 0,0 l/m² 0 min 2 min 0 W/m² 12,9 km/h (3 Bft) 93,62 %
26.02.2026 19:22 15,6 °C 13,9 °C 10,0 °C 74 % 1019,5 hPa 0,0 l/m² 0 min 2 min 0 W/m² 6,4 km/h (2 Bft) 54,35 %
26.02.2026 19:24 15,6 °C 13,9 °C 10,0 °C 75 % 1019,5 hPa 0,0 l/m² 0 min 2 min 0 W/m² 6,4 km/h (2 Bft) 97,87 %
26.02.2026 19:26 15,5 °C 13,9 °C 10,0 °C 75 % 1019,5 hPa 0,0 l/m² 0 min 2 min 0 W/m² 12,9 km/h (3 Bft) 97,87 %
26.02.2026 19:28 15,4 °C 13,9 °C 10,0 °C 75 % 1019,5 hPa 0,0 l/m² 0 min 2 min 0 W/m² 6,4 km/h (2 Bft) 93,62 %
26.02.2026 19:30 15,4 °C 13,9 °C 9,4 °C 75 % 1019,5 hPa 0,0 l/m² 0 min 2 min 0 W/m² 3,2 km/h (1 Bft) 95,65 %
26.02.2026 19:32 15,4 °C 13,9 °C 9,4 °C 75 % 1019,5 hPa 0,0 l/m² 0 min 2 min 0 W/m² 0,0 km/h (0 Bft) 95,74 %
26.02.2026 19:34 15,3 °C 13,9 °C 9,4 °C 75 % 1019,5 hPa 0,0 l/m² 0 min 2 min 0 W/m² 6,4 km/h (2 Bft) 91,49 %
26.02.2026 19:36 15,3 °C 13,3 °C 9,4 °C 75 % 1019,5 hPa 0,0 l/m² 0 min 2 min 0 W/m² 3,2 km/h (1 Bft) 93,62 %
26.02.2026 19:38 15,2 °C 13,3 °C 9,4 °C 75 % 1019,5 hPa 0,0 l/m² 0 min 2 min 0 W/m² 6,4 km/h (2 Bft) 93,62 %
26.02.2026 19:40 15,2 °C 13,3 °C 8,9 °C 75 % 1019,5 hPa 0,0 l/m² 0 min 2 min 0 W/m² 6,4 km/h (2 Bft) 95,65 %
26.02.2026 19:42 15,1 °C 13,3 °C 9,4 °C 76 % 1019,5 hPa 0,0 l/m² 0 min 2 min 0 W/m² 9,7 km/h (2 Bft) 95,74 %
26.02.2026 19:44 15,1 °C 13,3 °C 9,4 °C 76 % 1019,5 hPa 0,0 l/m² 0 min 2 min 0 W/m² 6,4 km/h (2 Bft) 93,62 %
26.02.2026 19:46 15,1 °C 13,3 °C 9,4 °C 76 % 1019,5 hPa 0,0 l/m² 0 min 2 min 0 W/m² 9,7 km/h (2 Bft) 95,74 %
26.02.2026 19:48 15,0 °C 13,9 °C 9,4 °C 76 % 1019,4 hPa 0,0 l/m² 0 min 2 min 0 W/m² 12,9 km/h (3 Bft) 95,74 %
26.02.2026 19:50 14,9 °C 13,9 °C 9,4 °C 76 % 1019,4 hPa 0,0 l/m² 0 min 2 min 0 W/m² 16,1 km/h (3 Bft) 95,74 %
26.02.2026 19:52 14,9 °C 13,9 °C 9,4 °C 76 % 1019,4 hPa 0,0 l/m² 0 min 2 min 0 W/m² 16,1 km/h (3 Bft) 95,65 %
26.02.2026 19:54 14,9 °C 13,9 °C 9,4 °C 76 % 1019,4 hPa 0,0 l/m² 0 min 2 min 0 W/m² 19,3 km/h (3 Bft) 95,74 %
26.02.2026 19:56 14,9 °C 13,9 °C 10,0 °C 76 % 1019,5 hPa 0,0 l/m² 0 min 2 min 0 W/m² 9,7 km/h (2 Bft) 95,74 %
26.02.2026 19:58 14,9 °C 13,9 °C 10,0 °C 76 % 1019,4 hPa 0,0 l/m² 0 min 2 min 0 W/m² 12,9 km/h (3 Bft) 93,62 %
26.02.2026 20:00 14,9 °C 13,9 °C 10,0 °C 76 % 1019,4 hPa 0,0 l/m² 0 min 2 min 0 W/m² 9,7 km/h (2 Bft) 95,74 %
26.02.2026 20:02 14,9 °C 13,9 °C 9,4 °C 76 % 1019,4 hPa 0,0 l/m² 0 min 2 min 0 W/m² 12,9 km/h (3 Bft) 93,62 %
26.02.2026 20:04 14,9 °C 13,9 °C 9,4 °C 76 % 1019,4 hPa 0,0 l/m² 0 min 2 min 0 W/m² 9,7 km/h (2 Bft) 97,62 %
26.02.2026 20:06 14,8 °C 13,9 °C 9,4 °C 76 % 1019,4 hPa 0,0 l/m² 0 min 2 min 0 W/m² 9,7 km/h (2 Bft) 98,28 %
26.02.2026 20:08 14,8 °C 13,9 °C 9,4 °C 76 % 1019,4 hPa 0,0 l/m² 0 min 2 min 0 W/m² 9,7 km/h (2 Bft) 97,22 %
26.02.2026 20:10 14,8 °C 13,9 °C 9,4 °C 76 % 1019,4 hPa 0,0 l/m² 0 min 2 min 0 W/m² 12,9 km/h (3 Bft) 97,83 %
26.02.2026 20:12 14,7 °C 13,3 °C 9,4 °C 76 % 1019,4 hPa 0,0 l/m² 0 min 2 min 0 W/m² 9,7 km/h (2 Bft) 97,87 %
26.02.2026 20:14 14,7 °C 13,3 °C 9,4 °C 77 % 1019,3 hPa 0,0 l/m² 0 min 2 min 0 W/m² 16,1 km/h (3 Bft) 95,74 %
26.02.2026 20:16 14,7 °C 13,3 °C 9,4 °C 77 % 1019,3 hPa 0,0 l/m² 0 min 2 min 0 W/m² 12,9 km/h (3 Bft) 100,00 %
26.02.2026 20:18 14,7 °C 13,3 °C 9,4 °C 77 % 1019,3 hPa 0,0 l/m² 0 min 2 min 0 W/m² 9,7 km/h (2 Bft) 100,00 %
26.02.2026 20:20 14,6 °C 13,3 °C 9,4 °C 77 % 1019,3 hPa 0,0 l/m² 0 min 2 min 0 W/m² 9,7 km/h (2 Bft) 97,87 %
26.02.2026 20:22 14,6 °C 13,3 °C 9,4 °C 77 % 1019,3 hPa 0,0 l/m² 0 min 2 min 0 W/m² 12,9 km/h (3 Bft) 100,00 %
26.02.2026 20:24 14,6 °C 13,3 °C 9,4 °C 77 % 1019,3 hPa 0,0 l/m² 0 min 2 min 0 W/m² 9,7 km/h (2 Bft) 100,00 %
26.02.2026 20:26 14,6 °C 13,3 °C 9,4 °C 77 % 1019,3 hPa 0,0 l/m² 0 min 2 min 0 W/m² 16,1 km/h (3 Bft) 100,00 %
26.02.2026 20:28 14,5 °C 13,3 °C 9,4 °C 77 % 1019,3 hPa 0,0 l/m² 0 min 2 min 0 W/m² 12,9 km/h (3 Bft) 97,87 %
26.02.2026 20:30 14,5 °C 13,3 °C 9,4 °C 77 % 1019,3 hPa 0,0 l/m² 0 min 2 min 0 W/m² 12,9 km/h (3 Bft) 100,00 %
26.02.2026 20:32 14,4 °C 13,3 °C 9,4 °C 77 % 1019,3 hPa 0,0 l/m² 0 min 2 min 0 W/m² 6,4 km/h (2 Bft) 97,87 %
26.02.2026 20:34 14,4 °C 13,3 °C 8,9 °C 77 % 1019,4 hPa 0,0 l/m² 0 min 2 min 0 W/m² 9,7 km/h (2 Bft) 100,00 %
26.02.2026 20:36 14,4 °C 12,8 °C 8,9 °C 77 % 1019,3 hPa 0,0 l/m² 0 min 2 min 0 W/m² 6,4 km/h (2 Bft) 100,00 %
26.02.2026 20:38 14,3 °C 12,8 °C 8,9 °C 77 % 1019,3 hPa 0,0 l/m² 0 min 2 min 0 W/m² 12,9 km/h (3 Bft) 100,00 %
26.02.2026 20:40 14,3 °C 13,3 °C 8,9 °C 77 % 1019,4 hPa 0,0 l/m² 0 min 2 min 0 W/m² 9,7 km/h (2 Bft) 100,00 %
26.02.2026 20:42 14,3 °C 13,3 °C 8,9 °C 77 % 1019,3 hPa 0,0 l/m² 0 min 2 min 0 W/m² 9,7 km/h (2 Bft) 100,00 %
26.02.2026 20:44 14,3 °C 13,3 °C 8,9 °C 78 % 1019,4 hPa 0,0 l/m² 0 min 2 min 0 W/m² 9,7 km/h (2 Bft) 100,00 %
26.02.2026 20:46 14,3 °C 13,3 °C 8,9 °C 78 % 1019,4 hPa 0,0 l/m² 0 min 2 min 0 W/m² 12,9 km/h (3 Bft) 100,00 %
26.02.2026 20:48 14,3 °C 12,8 °C 8,9 °C 78 % 1019,4 hPa 0,0 l/m² 0 min 2 min 0 W/m² 12,9 km/h (3 Bft) 100,00 %
26.02.2026 20:50 14,3 °C 12,8 °C 8,9 °C 78 % 1019,4 hPa 0,0 l/m² 0 min 2 min 0 W/m² 12,9 km/h (3 Bft) 100,00 %
26.02.2026 20:52 14,3 °C 12,8 °C 8,9 °C 78 % 1019,4 hPa 0,0 l/m² 0 min 2 min 0 W/m² 12,9 km/h (3 Bft) 100,00 %
26.02.2026 20:54 14,3 °C 12,8 °C 8,9 °C 78 % 1019,4 hPa 0,0 l/m² 0 min 2 min 0 W/m² 12,9 km/h (3 Bft) 100,00 %
26.02.2026 20:56 14,2 °C 12,8 °C 8,9 °C 78 % 1019,4 hPa 0,0 l/m² 0 min 2 min 0 W/m² 16,1 km/h (3 Bft) 100,00 %
26.02.2026 20:58 14,2 °C 12,8 °C 8,9 °C 78 % 1019,3 hPa 0,0 l/m² 0 min 2 min 0 W/m² 19,3 km/h (3 Bft) 100,00 %
26.02.2026 21:00 14,2 °C 12,8 °C 8,9 °C 78 % 1019,3 hPa 0,0 l/m² 0 min 2 min 0 W/m² 9,7 km/h (2 Bft) 100,00 %
26.02.2026 21:02 14,1 °C 12,8 °C 8,9 °C 79 % 1019,4 hPa 0,0 l/m² 0 min 2 min 0 W/m² 19,3 km/h (3 Bft) 100,00 %
26.02.2026 21:04 14,1 °C 12,8 °C 8,9 °C 79 % 1019,3 hPa 0,0 l/m² 0 min 2 min 0 W/m² 9,7 km/h (2 Bft) 100,00 %
26.02.2026 21:06 14,1 °C 12,8 °C 8,9 °C 79 % 1019,3 hPa 0,0 l/m² 0 min 2 min 0 W/m² 9,7 km/h (2 Bft) 98,28 %
26.02.2026 21:08 14,1 °C 12,8 °C 8,9 °C 79 % 1019,3 hPa 0,0 l/m² 0 min 2 min 0 W/m² 6,4 km/h (2 Bft) 100,00 %
26.02.2026 21:10 14,0 °C 12,8 °C 8,9 °C 79 % 1019,3 hPa 0,0 l/m² 0 min 2 min 0 W/m² 6,4 km/h (2 Bft) 100,00 %
26.02.2026 21:12 13,9 °C 12,8 °C 8,9 °C 79 % 1019,3 hPa 0,0 l/m² 0 min 2 min 0 W/m² 9,7 km/h (2 Bft) 100,00 %
26.02.2026 21:14 13,9 °C 12,8 °C 8,9 °C 79 % 1019,3 hPa 0,0 l/m² 0 min 2 min 0 W/m² 12,9 km/h (3 Bft) 100,00 %
26.02.2026 21:16 13,9 °C 12,8 °C 8,9 °C 79 % 1019,3 hPa 0,0 l/m² 0 min 2 min 0 W/m² 12,9 km/h (3 Bft) 100,00 %
26.02.2026 21:18 13,8 °C 12,8 °C 8,9 °C 79 % 1019,3 hPa 0,0 l/m² 0 min 2 min 0 W/m² 6,4 km/h (2 Bft) 100,00 %
26.02.2026 21:20 13,8 °C 12,2 °C 8,9 °C 80 % 1019,2 hPa 0,0 l/m² 0 min 2 min 0 W/m² 9,7 km/h (2 Bft) 100,00 %
26.02.2026 21:22 13,8 °C 12,2 °C 8,3 °C 80 % 1019,3 hPa 0,0 l/m² 0 min 2 min 0 W/m² 9,7 km/h (2 Bft) 97,87 %
26.02.2026 21:24 13,7 °C 12,2 °C 8,3 °C 80 % 1019,2 hPa 0,0 l/m² 0 min 2 min 0 W/m² 6,4 km/h (2 Bft) 97,87 %
26.02.2026 21:26 13,7 °C 12,2 °C 8,3 °C 80 % 1019,2 hPa 0,0 l/m² 0 min 2 min 0 W/m² 12,9 km/h (3 Bft) 95,74 %
26.02.2026 21:28 13,7 °C 12,2 °C 8,3 °C 80 % 1019,2 hPa 0,0 l/m² 0 min 2 min 0 W/m² 16,1 km/h (3 Bft) 95,74 %
26.02.2026 21:30 13,6 °C 12,2 °C 8,3 °C 80 % 1019,2 hPa 0,0 l/m² 0 min 2 min 0 W/m² 9,7 km/h (2 Bft) 97,87 %
26.02.2026 21:32 13,6 °C 12,2 °C 8,3 °C 81 % 1019,2 hPa 0,0 l/m² 0 min 2 min 0 W/m² 12,9 km/h (3 Bft) 97,83 %
26.02.2026 21:34 13,6 °C 12,2 °C 8,3 °C 81 % 1019,2 hPa 0,0 l/m² 0 min 2 min 0 W/m² 12,9 km/h (3 Bft) 97,87 %
26.02.2026 21:36 13,6 °C 12,2 °C 8,3 °C 81 % 1019,3 hPa 0,0 l/m² 0 min 2 min 0 W/m² 16,1 km/h (3 Bft) 97,87 %
26.02.2026 21:38 13,6 °C 12,2 °C 8,3 °C 82 % 1019,3 hPa 0,0 l/m² 0 min 2 min 0 W/m² 16,1 km/h (3 Bft) 97,87 %
26.02.2026 21:40 13,5 °C 12,2 °C 8,3 °C 82 % 1019,2 hPa 0,0 l/m² 0 min 2 min 0 W/m² 16,1 km/h (3 Bft) 97,87 %
26.02.2026 21:42 13,5 °C 12,2 °C 8,3 °C 82 % 1019,3 hPa 0,0 l/m² 0 min 2 min 0 W/m² 12,9 km/h (3 Bft) 97,87 %
26.02.2026 21:44 13,5 °C 12,2 °C 8,3 °C 82 % 1019,3 hPa 0,0 l/m² 0 min 2 min 0 W/m² 12,9 km/h (3 Bft) 95,65 %
26.02.2026 21:46 13,5 °C 12,2 °C 8,3 °C 82 % 1019,3 hPa 0,0 l/m² 0 min 2 min 0 W/m² 12,9 km/h (3 Bft) 95,74 %
26.02.2026 21:48 13,5 °C 12,2 °C 8,3 °C 82 % 1019,3 hPa 0,0 l/m² 0 min 2 min 0 W/m² 12,9 km/h (3 Bft) 93,62 %
26.02.2026 21:50 13,4 °C 12,2 °C 8,3 °C 82 % 1019,2 hPa 0,0 l/m² 0 min 2 min 0 W/m² 9,7 km/h (2 Bft) 93,62 %
26.02.2026 21:52 13,4 °C 12,2 °C 8,3 °C 82 % 1019,3 hPa 0,0 l/m² 0 min 2 min 0 W/m² 12,9 km/h (3 Bft) 95,74 %
26.02.2026 21:54 13,4 °C 12,2 °C 8,3 °C 82 % 1019,2 hPa 0,0 l/m² 0 min 2 min 0 W/m² 16,1 km/h (3 Bft) 97,87 %
26.02.2026 21:56 13,4 °C 12,2 °C 8,3 °C 83 % 1019,2 hPa 0,0 l/m² 0 min 2 min 0 W/m² 16,1 km/h (3 Bft) 95,65 %
26.02.2026 21:58 13,4 °C 12,2 °C 8,3 °C 83 % 1019,2 hPa 0,0 l/m² 0 min 2 min 0 W/m² 6,4 km/h (2 Bft) 97,87 %
26.02.2026 22:00 13,3 °C 12,2 °C 8,3 °C 83 % 1019,2 hPa 0,0 l/m² 0 min 2 min 0 W/m² 12,9 km/h (3 Bft) 97,87 %
26.02.2026 22:02 13,3 °C 12,2 °C 8,3 °C 83 % 1019,2 hPa 0,0 l/m² 0 min 2 min 0 W/m² 19,3 km/h (3 Bft) 93,62 %
26.02.2026 22:04 13,3 °C 12,2 °C 8,3 °C 83 % 1019,1 hPa 0,0 l/m² 0 min 2 min 0 W/m² 9,7 km/h (2 Bft) 93,88 %
26.02.2026 22:06 13,3 °C 12,2 °C 8,3 °C 83 % 1019,2 hPa 0,0 l/m² 0 min 2 min 0 W/m² 16,1 km/h (3 Bft) 94,83 %
26.02.2026 22:08 13,3 °C 12,2 °C 8,3 °C 83 % 1019,2 hPa 0,0 l/m² 0 min 2 min 0 W/m² 16,1 km/h (3 Bft) 97,14 %
26.02.2026 22:10 13,3 °C 12,2 °C 8,3 °C 83 % 1019,2 hPa 0,0 l/m² 0 min 2 min 0 W/m² 12,9 km/h (3 Bft) 95,74 %
26.02.2026 22:12 13,3 °C 12,2 °C 8,3 °C 84 % 1019,2 hPa 0,0 l/m² 0 min 2 min 0 W/m² 22,5 km/h (4 Bft) 93,62 %
26.02.2026 22:14 13,3 °C 12,2 °C 8,3 °C 84 % 1019,1 hPa 0,0 l/m² 0 min 2 min 0 W/m² 12,9 km/h (3 Bft) 93,62 %
26.02.2026 22:16 13,3 °C 12,2 °C 8,3 °C 84 % 1019,1 hPa 0,0 l/m² 0 min 2 min 0 W/m² 6,4 km/h (2 Bft) 95,74 %
26.02.2026 22:18 13,2 °C 12,2 °C 8,3 °C 84 % 1019,1 hPa 0,0 l/m² 0 min 2 min 0 W/m² 12,9 km/h (3 Bft) 95,65 %
26.02.2026 22:20 13,2 °C 12,2 °C 8,3 °C 84 % 1019,1 hPa 0,0 l/m² 0 min 2 min 0 W/m² 19,3 km/h (3 Bft) 95,74 %
26.02.2026 22:22 13,2 °C 12,2 °C 8,3 °C 84 % 1019,1 hPa 0,0 l/m² 0 min 2 min 0 W/m² 9,7 km/h (2 Bft) 93,62 %
26.02.2026 22:24 13,2 °C 12,2 °C 8,3 °C 84 % 1019,1 hPa 0,0 l/m² 0 min 2 min 0 W/m² 12,9 km/h (3 Bft) 95,74 %
26.02.2026 22:26 13,2 °C 12,2 °C 8,3 °C 84 % 1019,1 hPa 0,0 l/m² 0 min 2 min 0 W/m² 6,4 km/h (2 Bft) 93,62 %
26.02.2026 22:28 13,2 °C 12,2 °C 8,3 °C 84 % 1019,1 hPa 0,0 l/m² 0 min 2 min 0 W/m² 12,9 km/h (3 Bft) 95,74 %
26.02.2026 22:30 13,1 °C 12,2 °C 8,3 °C 84 % 1019,1 hPa 0,0 l/m² 0 min 2 min 0 W/m² 12,9 km/h (3 Bft) 95,65 %
26.02.2026 22:32 13,1 °C 12,2 °C 8,3 °C 84 % 1019,1 hPa 0,0 l/m² 0 min 2 min 0 W/m² 12,9 km/h (3 Bft) 93,62 %
26.02.2026 22:34 13,1 °C 12,2 °C 8,3 °C 84 % 1019,1 hPa 0,0 l/m² 0 min 2 min 0 W/m² 9,7 km/h (2 Bft) 95,74 %
26.02.2026 22:36 13,1 °C 12,2 °C 8,3 °C 84 % 1019,1 hPa 0,0 l/m² 0 min 2 min 0 W/m² 12,9 km/h (3 Bft) 95,74 %
26.02.2026 22:38 13,1 °C 12,2 °C 7,8 °C 84 % 1019,1 hPa 0,0 l/m² 0 min 2 min 0 W/m² 12,9 km/h (3 Bft) 97,87 %
26.02.2026 22:40 13,0 °C 11,7 °C 7,8 °C 84 % 1019,1 hPa 0,0 l/m² 0 min 2 min 0 W/m² 12,9 km/h (3 Bft) 97,87 %
26.02.2026 22:42 13,0 °C 11,7 °C 7,8 °C 84 % 1019,0 hPa 0,0 l/m² 0 min 2 min 0 W/m² 19,3 km/h (3 Bft) 97,83 %
26.02.2026 22:44 13,0 °C 11,7 °C 7,8 °C 84 % 1019,0 hPa 0,0 l/m² 0 min 2 min 0 W/m² 12,9 km/h (3 Bft) 100,00 %
26.02.2026 22:46 12,9 °C 11,7 °C 7,8 °C 85 % 1019,0 hPa 0,0 l/m² 0 min 2 min 0 W/m² 12,9 km/h (3 Bft) 97,87 %
26.02.2026 22:48 12,9 °C 11,7 °C 7,8 °C 85 % 1019,0 hPa 0,0 l/m² 0 min 2 min 0 W/m² 16,1 km/h (3 Bft) 100,00 %
26.02.2026 22:50 12,9 °C 11,7 °C 7,8 °C 85 % 1019,0 hPa 0,0 l/m² 0 min 2 min 0 W/m² 12,9 km/h (3 Bft) 100,00 %
26.02.2026 22:52 12,9 °C 11,7 °C 7,8 °C 85 % 1019,0 hPa 0,0 l/m² 0 min 2 min 0 W/m² 9,7 km/h (2 Bft) 100,00 %
26.02.2026 22:54 12,9 °C 11,7 °C 7,8 °C 85 % 1019,0 hPa 0,0 l/m² 0 min 2 min 0 W/m² 6,4 km/h (2 Bft) 100,00 %
26.02.2026 22:56 12,8 °C 11,7 °C 7,8 °C 85 % 1019,0 hPa 0,0 l/m² 0 min 2 min 0 W/m² 12,9 km/h (3 Bft) 100,00 %
26.02.2026 22:58 12,8 °C 11,7 °C 7,8 °C 85 % 1018,9 hPa 0,0 l/m² 0 min 2 min 0 W/m² 16,1 km/h (3 Bft) 100,00 %
26.02.2026 23:00 12,8 °C 11,7 °C 7,8 °C 85 % 1019,0 hPa 0,0 l/m² 0 min 2 min 0 W/m² 12,9 km/h (3 Bft) 100,00 %
26.02.2026 23:02 12,8 °C 11,7 °C 7,8 °C 85 % 1019,0 hPa 0,0 l/m² 0 min 2 min 0 W/m² 12,9 km/h (3 Bft) 100,00 %
26.02.2026 23:04 12,8 °C 11,7 °C 7,8 °C 85 % 1018,9 hPa 0,0 l/m² 0 min 2 min 0 W/m² 16,1 km/h (3 Bft) 100,00 %
26.02.2026 23:06 12,8 °C 11,7 °C 7,8 °C 85 % 1018,9 hPa 0,0 l/m² 0 min 2 min 0 W/m² 6,4 km/h (2 Bft) 100,00 %
26.02.2026 23:08 12,7 °C 11,7 °C 7,8 °C 85 % 1018,9 hPa 0,0 l/m² 0 min 2 min 0 W/m² 6,4 km/h (2 Bft) 100,00 %
26.02.2026 23:10 12,7 °C 11,7 °C 7,8 °C 85 % 1018,9 hPa 0,0 l/m² 0 min 2 min 0 W/m² 12,9 km/h (3 Bft) 100,00 %
26.02.2026 23:12 12,7 °C 11,7 °C 7,8 °C 85 % 1018,8 hPa 0,0 l/m² 0 min 2 min 0 W/m² 9,7 km/h (2 Bft) 97,87 %
26.02.2026 23:14 12,7 °C 11,7 °C 7,8 °C 85 % 1018,8 hPa 0,0 l/m² 0 min 2 min 0 W/m² 9,7 km/h (2 Bft) 97,87 %
26.02.2026 23:16 12,6 °C 11,7 °C 7,8 °C 85 % 1018,9 hPa 0,0 l/m² 0 min 2 min 0 W/m² 9,7 km/h (2 Bft) 97,83 %
26.02.2026 23:18 12,6 °C 11,7 °C 7,8 °C 85 % 1018,8 hPa 0,0 l/m² 0 min 2 min 0 W/m² 6,4 km/h (2 Bft) 97,87 %
26.02.2026 23:20 12,6 °C 11,7 °C 7,8 °C 85 % 1018,8 hPa 0,0 l/m² 0 min 2 min 0 W/m² 9,7 km/h (2 Bft) 97,87 %
26.02.2026 23:22 12,6 °C 11,7 °C 7,8 °C 86 % 1018,8 hPa 0,0 l/m² 0 min 2 min 0 W/m² 6,4 km/h (2 Bft) 95,74 %
26.02.2026 23:24 12,6 °C 11,7 °C 7,8 °C 86 % 1018,8 hPa 0,0 l/m² 0 min 2 min 0 W/m² 9,7 km/h (2 Bft) 97,87 %
26.02.2026 23:26 12,6 °C 11,7 °C 7,8 °C 86 % 1018,8 hPa 0,0 l/m² 0 min 2 min 0 W/m² 6,4 km/h (2 Bft) 97,87 %
26.02.2026 23:28 12,5 °C 11,1 °C 7,8 °C 86 % 1018,8 hPa 0,0 l/m² 0 min 2 min 0 W/m² 6,4 km/h (2 Bft) 95,65 %
26.02.2026 23:30 12,5 °C 11,1 °C 7,8 °C 86 % 1018,8 hPa 0,0 l/m² 0 min 2 min 0 W/m² 12,9 km/h (3 Bft) 97,87 %
26.02.2026 23:32 12,5 °C 11,1 °C 7,8 °C 86 % 1018,8 hPa 0,0 l/m² 0 min 2 min 0 W/m² 9,7 km/h (2 Bft) 97,87 %
26.02.2026 23:34 12,4 °C 11,1 °C 7,8 °C 86 % 1018,8 hPa 0,0 l/m² 0 min 2 min 0 W/m² 12,9 km/h (3 Bft) 97,87 %
26.02.2026 23:36 12,4 °C 11,1 °C 7,2 °C 86 % 1018,8 hPa 0,0 l/m² 0 min 2 min 0 W/m² 6,4 km/h (2 Bft) 97,87 %
26.02.2026 23:38 12,4 °C 11,1 °C 7,2 °C 86 % 1018,8 hPa 0,0 l/m² 0 min 2 min 0 W/m² 9,7 km/h (2 Bft) 97,87 %
26.02.2026 23:40 12,4 °C 11,1 °C 7,2 °C 86 % 1018,8 hPa 0,0 l/m² 0 min 2 min 0 W/m² 3,2 km/h (1 Bft) 97,83 %
26.02.2026 23:42 12,4 °C 11,1 °C 7,2 °C 86 % 1018,8 hPa 0,0 l/m² 0 min 2 min 0 W/m² 9,7 km/h (2 Bft) 95,74 %
26.02.2026 23:44 12,3 °C 11,1 °C 7,2 °C 86 % 1018,9 hPa 0,0 l/m² 0 min 2 min 0 W/m² 6,4 km/h (2 Bft) 100,00 %
26.02.2026 23:46 12,3 °C 11,1 °C 7,2 °C 86 % 1018,8 hPa 0,0 l/m² 0 min 2 min 0 W/m² 3,2 km/h (1 Bft) 100,00 %
26.02.2026 23:48 12,3 °C 11,1 °C 7,2 °C 86 % 1018,8 hPa 0,0 l/m² 0 min 2 min 0 W/m² 3,2 km/h (1 Bft) 97,87 %
26.02.2026 23:50 12,3 °C 11,1 °C 7,2 °C 86 % 1018,8 hPa 0,0 l/m² 0 min 2 min 0 W/m² 6,4 km/h (2 Bft) 100,00 %
26.02.2026 23:52 12,3 °C 11,1 °C 7,2 °C 86 % 1018,8 hPa 0,0 l/m² 0 min 2 min 0 W/m² 3,2 km/h (1 Bft) 100,00 %
26.02.2026 23:54 12,2 °C 11,1 °C 7,2 °C 86 % 1018,8 hPa 0,0 l/m² 0 min 2 min 0 W/m² 6,4 km/h (2 Bft) 100,00 %
26.02.2026 23:56 12,2 °C 11,1 °C 7,2 °C 86 % 1018,8 hPa 0,0 l/m² 0 min 2 min 0 W/m² 9,7 km/h (2 Bft) 100,00 %
26.02.2026 23:58 12,2 °C 10,6 °C 7,2 °C 86 % 1018,8 hPa 0,0 l/m² 0 min 2 min 0 W/m² 6,4 km/h (2 Bft) 100,00 %
_ Min-Zeit 07:48 07:14 07:22 15:32 23:12 - - - - 19:32 19:22
Minimum _ 8,1 °C 7,2 °C 3,9 °C 69 % 1018,8 hPa - - - - 0,0 km/h (0 Bft) 54,35 %
_ Max-Zeit 15:24 12:56 11:32 07:06 10:20 00:00 12:12 18:07 13:10 11:52 00:12
Maximum _ 19,7 °C 25,0 °C 17,2 °C 97 % 1021,7 hPa 0,0 l/m² 4 min 3 min 511 W/m² 35,4 km/h
S-SW (5 Bft)
100,00 %
Durchschnitt _ 13,1 °C 13,7 °C 8,8 °C 85 % 1020,1 hPa #0,0 l/m² #7:06 h #11:00 h 250 W/m² 15,2 km/h (3 Bft) 97,54 %
© 2026 W. Hausmann